ARG01 KOPF-SABE
Flight info
| Callsign | ARG01 |
|---|---|
| Flight time | N/A |
| Altitude | 35000 |
| Route | MAYNR3 FUNDI UM335 JABIR/N0459F370 UM335 ARNAL UL465 TBG/N0460F390 UM674 QIT UW23 PAV UP408 ANKUG/N0456F410 UP408 TOMIX UL300 SIRAM UM789 LOA UL550 ROS UT672 MULTA UW24 SNT SNT9R |
| Aircraft | B752/M-SDE2E3FGHIJ3J4J7RWXY/LB1 |
Departure
| Time | 2026-05-05 03:54 |
|---|---|
| Airport | Miami-Opa Locka Executive Airport (KOPF) |
Arrival
| Time | N/A |
|---|---|
| Airport | Aeroparque Jorge Newbery (SABE) |
| Time | Latitude | Longitude | Altitude | Speed | Heading |
|---|---|---|---|---|---|
| 2026-05-05 03:32 | 25.91028 | -80.27351 | 14 ft | 0 kts | 300° |
| 2026-05-05 03:43 | 25.91029 | -80.27352 | 14 ft | 1 kts | 300° |
| 2026-05-05 03:43 | 25.91046 | -80.27384 | 14 ft | 5 kts | 302° |
| 2026-05-05 03:43 | 25.91059 | -80.27406 | 13 ft | 1 kts | 302° |
| 2026-05-05 03:44 | 25.91060 | -80.27407 | 13 ft | 0 kts | 302° |
| 2026-05-05 03:44 | 25.91060 | -80.27408 | 13 ft | 0 kts | 302° |
| 2026-05-05 03:44 | 25.91060 | -80.27409 | 13 ft | 0 kts | 302° |
| 2026-05-05 03:44 | 25.91061 | -80.27410 | 13 ft | 0 kts | 302° |
| 2026-05-05 03:45 | 25.91062 | -80.27411 | 13 ft | 0 kts | 302° |
| 2026-05-05 03:45 | 25.91062 | -80.27412 | 13 ft | 0 kts | 302° |
| 2026-05-05 03:45 | 25.91063 | -80.27413 | 13 ft | 0 kts | 302° |
| 2026-05-05 03:45 | 25.91063 | -80.27414 | 13 ft | 0 kts | 302° |
| 2026-05-05 03:46 | 25.91064 | -80.27415 | 13 ft | 0 kts | 302° |
| 2026-05-05 03:46 | 25.91064 | -80.27416 | 13 ft | 0 kts | 302° |
| 2026-05-05 03:46 | 25.91065 | -80.27417 | 13 ft | 0 kts | 302° |
| 2026-05-05 03:46 | 25.91065 | -80.27418 | 13 ft | 0 kts | 302° |
| 2026-05-05 03:47 | 25.91069 | -80.27425 | 13 ft | 1 kts | 302° |
| 2026-05-05 03:47 | 25.91075 | -80.27435 | 13 ft | 3 kts | 302° |
| 2026-05-05 03:47 | 25.91093 | -80.27468 | 12 ft | 3 kts | 301° |
| 2026-05-05 03:47 | 25.91095 | -80.27470 | 12 ft | 0 kts | 303° |
| 2026-05-05 03:48 | 25.91099 | -80.27476 | 12 ft | 1 kts | 326° |
| 2026-05-05 03:48 | 25.91112 | -80.27474 | 12 ft | 3 kts | 26° |
| 2026-05-05 03:48 | 25.91138 | -80.27417 | 12 ft | 12 kts | 75° |
| 2026-05-05 03:48 | 25.91144 | -80.27393 | 12 ft | 0 kts | 66° |
| 2026-05-05 03:49 | 25.91166 | -80.27368 | 11 ft | 9 kts | 22° |
| 2026-05-05 03:49 | 25.91213 | -80.27375 | 11 ft | 2 kts | 269° |
| 2026-05-05 03:49 | 25.91213 | -80.27380 | 11 ft | 2 kts | 260° |
| 2026-05-05 03:49 | 25.91198 | -80.27452 | 11 ft | 17 kts | 262° |
| 2026-05-05 03:50 | 25.91188 | -80.27632 | 11 ft | 29 kts | 267° |
| 2026-05-05 03:50 | 25.91177 | -80.27904 | 11 ft | 40 kts | 268° |
| 2026-05-05 03:50 | 25.91162 | -80.28172 | 11 ft | 30 kts | 267° |
| 2026-05-05 03:50 | 25.91154 | -80.28387 | 11 ft | 25 kts | 268° |
| 2026-05-05 03:51 | 25.91144 | -80.28565 | 13 ft | 20 kts | 266° |
| 2026-05-05 03:51 | 25.91135 | -80.28697 | 15 ft | 14 kts | 265° |
| 2026-05-05 03:51 | 25.91131 | -80.28790 | 15 ft | 9 kts | 276° |
| 2026-05-05 03:51 | 25.91158 | -80.28832 | 15 ft | 4 kts | 335° |
| 2026-05-05 03:52 | 25.91169 | -80.28835 | 15 ft | 0 kts | 347° |
| 2026-05-05 03:53 | 25.91195 | -80.28840 | 15 ft | 8 kts | 354° |
| 2026-05-05 03:53 | 25.91260 | -80.28835 | 15 ft | 6 kts | 44° |
| 2026-05-05 03:53 | 25.91266 | -80.28816 | 15 ft | 0 kts | 85° |
| 2026-05-05 03:54 | 25.91275 | -80.28633 | 14 ft | 58 kts | 87° |
| 2026-05-05 03:54 | 25.91312 | -80.27880 | 12 ft | 134 kts | 88° |
| 2026-05-05 03:54 | 25.91375 | -80.26629 | 281 ft | 177 kts | 88° |
| 2026-05-05 03:54 | 25.91493 | -80.25249 | 1097 ft | 187 kts | 72° |
| 2026-05-05 03:55 | 25.92148 | -80.23944 | 1470 ft | 205 kts | 62° |
| 2026-05-05 03:55 | 25.92456 | -80.22327 | 1753 ft | 230 kts | 96° |
| 2026-05-05 03:55 | 25.91997 | -80.20592 | 2414 ft | 241 kts | 111° |
| 2026-05-05 03:55 | 25.91360 | -80.18827 | 3126 ft | 250 kts | 115° |
| 2026-05-05 03:56 | 25.90339 | -80.17311 | 3933 ft | 255 kts | 142° |
| 2026-05-05 03:56 | 25.88712 | -80.16538 | 4768 ft | 258 kts | 173° |
| 2026-05-05 03:56 | 25.86945 | -80.16780 | 5626 ft | 259 kts | 204° |
| 2026-05-05 03:56 | 25.85540 | -80.17924 | 6538 ft | 259 kts | 227° |
| 2026-05-05 03:57 | 25.84361 | -80.19398 | 7479 ft | 257 kts | 228° |
| 2026-05-05 03:57 | 25.83162 | -80.20853 | 8370 ft | 256 kts | 226° |
| 2026-05-05 03:57 | 25.81792 | -80.22108 | 9229 ft | 258 kts | 216° |
| 2026-05-05 03:57 | 25.80231 | -80.23093 | 10064 ft | 260 kts | 210° |
| 2026-05-05 03:58 | 25.78530 | -80.23962 | 10370 ft | 284 kts | 206° |
| 2026-05-05 03:58 | 25.76586 | -80.24806 | 10530 ft | 312 kts | 204° |
| 2026-05-05 03:58 | 25.74451 | -80.25653 | 10654 ft | 340 kts | 202° |
| 2026-05-05 03:58 | 25.72152 | -80.26519 | 11082 ft | 357 kts | 202° |
| 2026-05-05 03:59 | 25.69794 | -80.27386 | 11910 ft | 362 kts | 202° |
| 2026-05-05 03:59 | 25.67406 | -80.28257 | 12716 ft | 367 kts | 202° |
| 2026-05-05 03:59 | 25.64956 | -80.29146 | 13481 ft | 372 kts | 202° |
| 2026-05-05 03:59 | 25.62500 | -80.30034 | 14235 ft | 377 kts | 202° |
| 2026-05-05 04:00 | 25.59981 | -80.30943 | 14995 ft | 381 kts | 202° |
| 2026-05-05 04:00 | 25.57490 | -80.31840 | 15720 ft | 386 kts | 203° |
| 2026-05-05 04:00 | 25.54921 | -80.32766 | 16439 ft | 390 kts | 203° |
| 2026-05-05 04:00 | 25.52315 | -80.33704 | 17137 ft | 395 kts | 203° |
| 2026-05-05 04:01 | 25.49698 | -80.34646 | 17824 ft | 399 kts | 203° |
| 2026-05-05 04:01 | 25.47090 | -80.35583 | 18486 ft | 403 kts | 204° |
| 2026-05-05 04:01 | 25.44406 | -80.36549 | 19163 ft | 407 kts | 204° |
| 2026-05-05 04:01 | 25.41692 | -80.37523 | 19813 ft | 411 kts | 204° |
| 2026-05-05 04:02 | 25.38969 | -80.38501 | 20443 ft | 414 kts | 204° |
| 2026-05-05 04:02 | 25.36233 | -80.39483 | 21068 ft | 418 kts | 204° |
| 2026-05-05 04:02 | 25.33483 | -80.40469 | 21650 ft | 421 kts | 204° |
| 2026-05-05 04:02 | 25.30667 | -80.41479 | 22240 ft | 425 kts | 204° |
| 2026-05-05 04:03 | 25.27885 | -80.42476 | 22799 ft | 428 kts | 204° |
| 2026-05-05 04:03 | 25.25005 | -80.43498 | 23358 ft | 432 kts | 203° |
| 2026-05-05 04:03 | 25.22154 | -80.44493 | 23693 ft | 441 kts | 202° |
| 2026-05-05 04:03 | 25.19216 | -80.45451 | 24270 ft | 444 kts | 202° |
| 2026-05-05 04:04 | 25.16247 | -80.46426 | 24728 ft | 448 kts | 202° |
| 2026-05-05 04:04 | 25.13221 | -80.47418 | 25181 ft | 453 kts | 202° |
| 2026-05-05 04:04 | 25.10235 | -80.48394 | 25626 ft | 457 kts | 203° |
| 2026-05-05 04:04 | 25.07178 | -80.49395 | 26057 ft | 461 kts | 203° |
| 2026-05-05 04:05 | 25.04077 | -80.50410 | 26476 ft | 465 kts | 203° |
| 2026-05-05 04:05 | 25.01008 | -80.51414 | 26876 ft | 469 kts | 203° |
| 2026-05-05 04:05 | 24.97875 | -80.52438 | 27270 ft | 473 kts | 203° |
| 2026-05-05 04:05 | 24.94714 | -80.53471 | 27653 ft | 476 kts | 203° |
| 2026-05-05 04:06 | 24.91482 | -80.54524 | 28032 ft | 480 kts | 203° |
| 2026-05-05 04:06 | 24.88314 | -80.55636 | 28389 ft | 480 kts | 208° |
| 2026-05-05 04:06 | 24.85293 | -80.57213 | 28736 ft | 475 kts | 217° |
| 2026-05-05 04:06 | 24.82631 | -80.59232 | 29070 ft | 469 kts | 226° |
| 2026-05-05 04:07 | 24.80288 | -80.61708 | 29406 ft | 464 kts | 235° |
| 2026-05-05 04:07 | 24.78342 | -80.64506 | 29761 ft | 460 kts | 241° |
| 2026-05-05 04:07 | 24.76551 | -80.67390 | 30243 ft | 459 kts | 242° |
| 2026-05-05 04:07 | 24.74780 | -80.70293 | 30860 ft | 455 kts | 243° |
| 2026-05-05 04:08 | 24.73038 | -80.73196 | 31428 ft | 452 kts | 243° |
| 2026-05-05 04:08 | 24.71346 | -80.76050 | 31931 ft | 449 kts | 243° |
| 2026-05-05 04:08 | 24.69644 | -80.78939 | 32360 ft | 448 kts | 244° |
| 2026-05-05 04:08 | 24.67979 | -80.81780 | 32878 ft | 445 kts | 244° |
| 2026-05-05 04:09 | 24.66294 | -80.84661 | 33349 ft | 443 kts | 244° |
| 2026-05-05 04:09 | 24.64652 | -80.87472 | 33804 ft | 441 kts | 244° |
| 2026-05-05 04:09 | 24.62988 | -80.90324 | 34245 ft | 438 kts | 244° |
| 2026-05-05 04:09 | 24.61352 | -80.93085 | 34658 ft | 438 kts | 242° |
| 2026-05-05 04:10 | 24.59377 | -80.95701 | 34996 ft | 447 kts | 233° |
| 2026-05-05 04:10 | 24.57032 | -80.97955 | 35025 ft | 457 kts | 224° |
| 2026-05-05 04:10 | 24.51256 | -81.01212 | 35025 ft | 477 kts | 206° |
| 2026-05-05 04:11 | 24.48025 | -81.02071 | 35026 ft | 488 kts | 197° |
| 2026-05-05 04:11 | 24.44601 | -81.02385 | 35026 ft | 498 kts | 187° |
| 2026-05-05 04:11 | 24.37673 | -81.01859 | 35019 ft | 503 kts | 184° |
| 2026-05-05 04:12 | 24.30710 | -81.01560 | 35015 ft | 501 kts | 186° |
| 2026-05-05 04:12 | 24.23781 | -81.01427 | 35021 ft | 500 kts | 186° |
| 2026-05-05 04:13 | 24.16890 | -81.01346 | 35028 ft | 493 kts | 187° |
| 2026-05-05 04:13 | 24.10055 | -81.01283 | 35030 ft | 495 kts | 187° |
| 2026-05-05 04:14 | 24.03162 | -81.01222 | 35030 ft | 495 kts | 187° |
| 2026-05-05 04:14 | 23.96285 | -81.01047 | 35031 ft | 497 kts | 185° |
| 2026-05-05 04:15 | 23.89404 | -81.00748 | 35030 ft | 497 kts | 185° |
| 2026-05-05 04:15 | 23.82506 | -81.00455 | 35021 ft | 497 kts | 185° |
| 2026-05-05 04:16 | 23.75604 | -81.00163 | 35019 ft | 497 kts | 185° |
| 2026-05-05 04:16 | 23.68728 | -80.99873 | 35019 ft | 494 kts | 184° |
| 2026-05-05 04:17 | 23.61850 | -80.99583 | 35020 ft | 495 kts | 184° |
| 2026-05-05 04:17 | 23.55002 | -80.99294 | 35021 ft | 495 kts | 184° |
| 2026-05-05 04:18 | 23.48159 | -80.99006 | 35021 ft | 495 kts | 184° |
| 2026-05-05 04:18 | 23.41318 | -80.98719 | 35022 ft | 495 kts | 184° |
| 2026-05-05 04:19 | 23.34432 | -80.98430 | 35022 ft | 495 kts | 184° |
| 2026-05-05 04:19 | 23.27561 | -80.98141 | 35023 ft | 495 kts | 184° |
| 2026-05-05 04:20 | 23.20693 | -80.97852 | 35022 ft | 494 kts | 184° |
| 2026-05-05 04:20 | 23.13846 | -80.97564 | 35024 ft | 494 kts | 184° |
| 2026-05-05 04:21 | 23.07003 | -80.97272 | 35023 ft | 494 kts | 184° |
| 2026-05-05 04:21 | 23.00283 | -80.96986 | 35024 ft | 494 kts | 184° |
| 2026-05-05 04:22 | 22.93409 | -80.96716 | 35025 ft | 494 kts | 184° |
| 2026-05-05 04:22 | 22.86561 | -80.96448 | 35019 ft | 494 kts | 184° |
| 2026-05-05 04:23 | 22.79741 | -80.96181 | 35047 ft | 494 kts | 184° |
| 2026-05-05 04:23 | 22.72887 | -80.95911 | 35048 ft | 493 kts | 184° |
| 2026-05-05 04:24 | 22.66080 | -80.95644 | 35047 ft | 487 kts | 185° |
| 2026-05-05 04:25 | 22.55936 | -80.95249 | 35048 ft | 489 kts | 185° |
| 2026-05-05 04:25 | 22.49118 | -80.94982 | 35022 ft | 490 kts | 185° |
| 2026-05-05 04:26 | 22.42347 | -80.94718 | 35022 ft | 490 kts | 185° |
| 2026-05-05 04:26 | 22.35549 | -80.94453 | 35022 ft | 490 kts | 185° |
| 2026-05-05 04:27 | 22.28746 | -80.94189 | 35023 ft | 490 kts | 185° |
| 2026-05-05 04:27 | 22.21983 | -80.93926 | 35024 ft | 487 kts | 184° |
| 2026-05-05 04:28 | 22.15251 | -80.93665 | 35024 ft | 485 kts | 185° |
| 2026-05-05 04:28 | 22.08555 | -80.93404 | 35023 ft | 485 kts | 184° |
| 2026-05-05 04:29 | 22.01800 | -80.93143 | 35024 ft | 485 kts | 185° |
| 2026-05-05 04:29 | 21.95103 | -80.92889 | 35024 ft | 485 kts | 184° |
| 2026-05-05 04:30 | 21.88388 | -80.92625 | 35022 ft | 485 kts | 184° |
| 2026-05-05 04:30 | 21.81619 | -80.92362 | 35021 ft | 485 kts | 184° |
| 2026-05-05 04:31 | 21.74920 | -80.92103 | 35021 ft | 485 kts | 184° |
| 2026-05-05 04:31 | 21.68158 | -80.91843 | 35102 ft | 487 kts | 184° |
| 2026-05-05 04:32 | 21.61417 | -80.91582 | 35102 ft | 487 kts | 184° |
| 2026-05-05 04:32 | 21.54668 | -80.91321 | 35102 ft | 487 kts | 184° |
| 2026-05-05 04:33 | 21.47951 | -80.91048 | 35103 ft | 487 kts | 184° |
| 2026-05-05 04:33 | 21.41222 | -80.90798 | 35103 ft | 487 kts | 184° |
| 2026-05-05 04:34 | 21.34450 | -80.90538 | 35104 ft | 487 kts | 184° |
| 2026-05-05 04:34 | 21.27702 | -80.90277 | 35104 ft | 487 kts | 184° |
| 2026-05-05 04:35 | 21.20958 | -80.90018 | 35105 ft | 488 kts | 184° |
| 2026-05-05 04:35 | 21.14206 | -80.89756 | 35105 ft | 489 kts | 184° |
| 2026-05-05 04:36 | 21.07446 | -80.89494 | 35105 ft | 489 kts | 184° |
| 2026-05-05 04:36 | 21.00681 | -80.89201 | 35106 ft | 489 kts | 184° |
| 2026-05-05 04:37 | 20.93871 | -80.88902 | 35106 ft | 489 kts | 184° |
| 2026-05-05 04:37 | 20.87097 | -80.88603 | 35102 ft | 489 kts | 184° |
| 2026-05-05 04:38 | 20.80322 | -80.88306 | 35102 ft | 489 kts | 184° |
| 2026-05-05 04:38 | 20.73596 | -80.88011 | 35101 ft | 489 kts | 184° |
| 2026-05-05 04:39 | 20.66747 | -80.87712 | 35102 ft | 492 kts | 184° |
| 2026-05-05 04:39 | 20.59963 | -80.87415 | 35103 ft | 492 kts | 184° |
| 2026-05-05 04:40 | 20.53119 | -80.87116 | 35098 ft | 492 kts | 184° |
| 2026-05-05 04:40 | 20.46311 | -80.86819 | 35022 ft | 492 kts | 184° |
| 2026-05-05 04:41 | 20.39489 | -80.86521 | 34996 ft | 492 kts | 184° |
| 2026-05-05 04:41 | 20.32684 | -80.86224 | 34997 ft | 492 kts | 184° |
| 2026-05-05 04:42 | 20.25900 | -80.85929 | 34997 ft | 492 kts | 184° |
| 2026-05-05 04:42 | 20.19095 | -80.85635 | 34995 ft | 486 kts | 183° |
| 2026-05-05 04:43 | 20.12383 | -80.85342 | 34998 ft | 488 kts | 183° |
| 2026-05-05 04:43 | 20.05608 | -80.85047 | 34997 ft | 487 kts | 183° |
| 2026-05-05 04:44 | 19.98838 | -80.84749 | 34998 ft | 488 kts | 182° |
| 2026-05-05 04:44 | 19.92100 | -80.84423 | 34998 ft | 488 kts | 182° |
| 2026-05-05 04:45 | 19.85346 | -80.84097 | 34994 ft | 488 kts | 182° |
| 2026-05-05 04:45 | 19.78595 | -80.83773 | 34995 ft | 488 kts | 182° |
| 2026-05-05 04:46 | 19.71848 | -80.83448 | 34996 ft | 485 kts | 182° |
| 2026-05-05 04:46 | 19.65200 | -80.83127 | 34996 ft | 479 kts | 183° |
| 2026-05-05 04:47 | 19.58548 | -80.82809 | 34996 ft | 479 kts | 183° |
| 2026-05-05 04:47 | 19.51944 | -80.82493 | 34996 ft | 479 kts | 183° |
| 2026-05-05 04:48 | 19.45293 | -80.82174 | 34996 ft | 479 kts | 183° |
| 2026-05-05 04:48 | 19.38674 | -80.81857 | 34996 ft | 479 kts | 183° |
| 2026-05-05 04:49 | 19.32047 | -80.81540 | 34996 ft | 479 kts | 183° |
| 2026-05-05 04:49 | 19.25388 | -80.81222 | 34997 ft | 479 kts | 183° |
| 2026-05-05 04:50 | 19.18785 | -80.80907 | 34996 ft | 476 kts | 183° |
| 2026-05-05 04:50 | 19.12193 | -80.80597 | 34997 ft | 476 kts | 183° |
| 2026-05-05 04:51 | 19.05632 | -80.80282 | 34997 ft | 476 kts | 183° |
| 2026-05-05 04:51 | 18.99000 | -80.79966 | 34997 ft | 476 kts | 183° |
| 2026-05-05 04:52 | 18.92441 | -80.79655 | 34997 ft | 476 kts | 183° |
| 2026-05-05 04:52 | 18.85835 | -80.79341 | 34996 ft | 476 kts | 183° |
| 2026-05-05 04:53 | 18.79241 | -80.79028 | 34996 ft | 476 kts | 183° |
| 2026-05-05 04:53 | 18.72641 | -80.78716 | 34997 ft | 475 kts | 182° |
| 2026-05-05 04:54 | 18.66112 | -80.78406 | 34997 ft | 472 kts | 182° |
| 2026-05-05 04:54 | 18.59559 | -80.78097 | 34996 ft | 473 kts | 182° |
| 2026-05-05 04:55 | 18.53037 | -80.77788 | 34996 ft | 473 kts | 182° |
| 2026-05-05 04:55 | 18.46446 | -80.77477 | 34996 ft | 473 kts | 182° |
| 2026-05-05 04:56 | 18.39920 | -80.77169 | 34996 ft | 473 kts | 182° |
| 2026-05-05 04:56 | 18.33394 | -80.76861 | 34996 ft | 473 kts | 182° |
| 2026-05-05 04:57 | 18.26837 | -80.76552 | 34996 ft | 473 kts | 182° |
| 2026-05-05 04:57 | 18.20287 | -80.76245 | 34995 ft | 471 kts | 182° |
| 2026-05-05 04:58 | 18.13755 | -80.75937 | 34996 ft | 472 kts | 182° |
| 2026-05-05 04:58 | 18.07211 | -80.75629 | 34996 ft | 472 kts | 182° |
| 2026-05-05 04:59 | 18.00719 | -80.75324 | 34996 ft | 472 kts | 182° |
| 2026-05-05 04:59 | 17.94190 | -80.75017 | 34996 ft | 472 kts | 182° |
| 2026-05-05 05:00 | 17.87676 | -80.74710 | 34996 ft | 469 kts | 182° |
| 2026-05-05 05:00 | 17.81146 | -80.74405 | 34997 ft | 470 kts | 182° |
| 2026-05-05 05:01 | 17.74661 | -80.74101 | 34997 ft | 470 kts | 182° |
| 2026-05-05 05:01 | 17.68158 | -80.73798 | 34997 ft | 471 kts | 181° |
| 2026-05-05 05:02 | 17.61616 | -80.73492 | 34996 ft | 471 kts | 181° |
| 2026-05-05 05:02 | 17.55118 | -80.73187 | 34996 ft | 471 kts | 181° |
| 2026-05-05 05:03 | 17.48573 | -80.72881 | 34996 ft | 471 kts | 181° |
| 2026-05-05 05:03 | 17.42057 | -80.72576 | 34996 ft | 471 kts | 181° |
| 2026-05-05 05:04 | 17.35567 | -80.72273 | 34996 ft | 471 kts | 181° |
| 2026-05-05 05:04 | 17.29022 | -80.71967 | 34997 ft | 471 kts | 181° |
| 2026-05-05 05:05 | 17.22488 | -80.71664 | 34995 ft | 472 kts | 181° |
| 2026-05-05 05:05 | 17.15951 | -80.71360 | 34996 ft | 474 kts | 181° |
| 2026-05-05 05:06 | 17.09383 | -80.71053 | 34996 ft | 473 kts | 181° |
| 2026-05-05 05:06 | 17.02848 | -80.70750 | 34996 ft | 473 kts | 181° |
| 2026-05-05 05:07 | 16.96288 | -80.70445 | 34996 ft | 473 kts | 181° |
| 2026-05-05 05:07 | 16.89737 | -80.70140 | 34996 ft | 473 kts | 181° |
| 2026-05-05 05:08 | 16.83176 | -80.69836 | 34996 ft | 473 kts | 181° |
| 2026-05-05 05:08 | 16.76595 | -80.69531 | 34996 ft | 473 kts | 181° |
| 2026-05-05 05:09 | 16.70064 | -80.69230 | 34996 ft | 473 kts | 180° |
| 2026-05-05 05:09 | 16.63529 | -80.68926 | 34996 ft | 473 kts | 180° |
| 2026-05-05 05:10 | 16.56967 | -80.68622 | 34996 ft | 473 kts | 180° |
| 2026-05-05 05:10 | 16.50387 | -80.68317 | 34996 ft | 473 kts | 180° |
| 2026-05-05 05:11 | 16.43847 | -80.68014 | 34996 ft | 473 kts | 180° |
| 2026-05-05 05:11 | 16.37282 | -80.67712 | 34996 ft | 473 kts | 180° |
| 2026-05-05 05:12 | 16.30733 | -80.67409 | 34970 ft | 474 kts | 180° |
| 2026-05-05 05:12 | 16.24140 | -80.67105 | 34969 ft | 473 kts | 180° |
| 2026-05-05 05:13 | 16.17632 | -80.66805 | 34969 ft | 472 kts | 180° |
| 2026-05-05 05:13 | 16.11052 | -80.66502 | 34969 ft | 473 kts | 180° |
| 2026-05-05 05:14 | 16.04532 | -80.66201 | 34969 ft | 473 kts | 180° |
| 2026-05-05 05:14 | 15.97985 | -80.65900 | 34969 ft | 473 kts | 180° |
| 2026-05-05 05:15 | 15.91434 | -80.65598 | 34969 ft | 473 kts | 180° |
| 2026-05-05 05:15 | 15.84893 | -80.65299 | 34969 ft | 473 kts | 180° |
| 2026-05-05 05:16 | 15.78324 | -80.64997 | 34969 ft | 473 kts | 180° |
| 2026-05-05 05:16 | 15.71805 | -80.64698 | 34969 ft | 474 kts | 180° |
| 2026-05-05 05:17 | 15.65218 | -80.64396 | 34969 ft | 474 kts | 180° |
| 2026-05-05 05:17 | 15.58643 | -80.64095 | 34969 ft | 474 kts | 180° |
| 2026-05-05 05:18 | 15.52064 | -80.63793 | 34969 ft | 474 kts | 180° |
| 2026-05-05 05:18 | 15.45497 | -80.63493 | 34969 ft | 474 kts | 180° |
| 2026-05-05 05:19 | 15.38946 | -80.63193 | 34969 ft | 474 kts | 180° |
| 2026-05-05 05:19 | 15.32374 | -80.62892 | 34969 ft | 474 kts | 180° |
| 2026-05-05 05:20 | 15.25790 | -80.62592 | 34969 ft | 474 kts | 180° |
| 2026-05-05 05:20 | 15.19230 | -80.62292 | 34969 ft | 475 kts | 180° |
| 2026-05-05 05:21 | 15.12634 | -80.61991 | 34969 ft | 474 kts | 180° |
| 2026-05-05 05:21 | 15.06092 | -80.61692 | 34969 ft | 475 kts | 180° |
| 2026-05-05 05:22 | 14.99500 | -80.61278 | 34972 ft | 476 kts | 174° |
| 2026-05-05 05:22 | 14.92971 | -80.60188 | 34969 ft | 477 kts | 173° |
| 2026-05-05 05:23 | 14.86463 | -80.59080 | 34969 ft | 477 kts | 173° |
| 2026-05-05 05:23 | 14.79910 | -80.57958 | 34969 ft | 477 kts | 173° |
| 2026-05-05 05:24 | 14.73375 | -80.56836 | 34969 ft | 477 kts | 172° |
| 2026-05-05 05:24 | 14.66887 | -80.55723 | 34969 ft | 474 kts | 173° |
| 2026-05-05 05:25 | 14.60416 | -80.54612 | 34969 ft | 473 kts | 173° |
| 2026-05-05 05:25 | 14.53940 | -80.53502 | 34969 ft | 473 kts | 173° |
| 2026-05-05 05:26 | 14.47475 | -80.52393 | 34969 ft | 473 kts | 173° |
| 2026-05-05 05:26 | 14.40997 | -80.51284 | 34969 ft | 473 kts | 173° |
| 2026-05-05 05:27 | 14.34516 | -80.50174 | 34969 ft | 473 kts | 173° |
| 2026-05-05 05:27 | 14.24807 | -80.48513 | 34969 ft | 473 kts | 173° |
| 2026-05-05 05:28 | 14.18358 | -80.47411 | 34969 ft | 473 kts | 173° |
| 2026-05-05 05:28 | 14.11861 | -80.46300 | 34969 ft | 473 kts | 173° |
| 2026-05-05 05:29 | 14.05415 | -80.45200 | 34969 ft | 473 kts | 173° |
| 2026-05-05 05:29 | 13.98912 | -80.44090 | 34970 ft | 473 kts | 173° |
| 2026-05-05 05:30 | 13.92422 | -80.42983 | 34970 ft | 473 kts | 173° |
| 2026-05-05 05:30 | 13.85992 | -80.41888 | 34970 ft | 473 kts | 173° |
| 2026-05-05 05:31 | 13.79469 | -80.40777 | 34970 ft | 473 kts | 173° |
| 2026-05-05 05:31 | 13.73030 | -80.39681 | 34970 ft | 474 kts | 173° |
| 2026-05-05 05:32 | 13.66528 | -80.38575 | 34970 ft | 474 kts | 172° |
| 2026-05-05 05:32 | 13.60045 | -80.37472 | 34970 ft | 474 kts | 172° |
| 2026-05-05 05:33 | 13.53544 | -80.36367 | 34970 ft | 474 kts | 172° |
| 2026-05-05 05:33 | 13.47085 | -80.35270 | 34970 ft | 474 kts | 172° |
| 2026-05-05 05:34 | 13.40591 | -80.34177 | 34968 ft | 474 kts | 173° |
| 2026-05-05 05:34 | 13.34130 | -80.33082 | 34965 ft | 474 kts | 173° |
| 2026-05-05 05:35 | 13.27611 | -80.31972 | 34965 ft | 474 kts | 173° |
| 2026-05-05 05:35 | 13.21150 | -80.30872 | 34965 ft | 473 kts | 173° |
| 2026-05-05 05:36 | 13.14692 | -80.29777 | 34966 ft | 473 kts | 173° |
| 2026-05-05 05:36 | 13.08231 | -80.28682 | 34965 ft | 473 kts | 173° |
| 2026-05-05 05:37 | 13.01759 | -80.27586 | 34965 ft | 473 kts | 173° |
| 2026-05-05 05:37 | 12.95280 | -80.26491 | 34965 ft | 473 kts | 173° |
| 2026-05-05 05:38 | 12.88805 | -80.25396 | 34966 ft | 473 kts | 173° |
| 2026-05-05 05:38 | 12.82359 | -80.24306 | 34966 ft | 473 kts | 173° |
| 2026-05-05 05:39 | 12.75910 | -80.23217 | 34966 ft | 473 kts | 173° |
| 2026-05-05 05:39 | 12.69426 | -80.22124 | 34966 ft | 474 kts | 172° |
| 2026-05-05 05:40 | 12.62915 | -80.21025 | 34966 ft | 474 kts | 172° |
| 2026-05-05 05:40 | 12.56431 | -80.19931 | 34966 ft | 474 kts | 172° |
| 2026-05-05 05:41 | 12.49966 | -80.18842 | 34966 ft | 474 kts | 172° |
| 2026-05-05 05:41 | 12.43477 | -80.17748 | 34966 ft | 474 kts | 172° |
| 2026-05-05 05:42 | 12.36950 | -80.16650 | 34966 ft | 474 kts | 172° |
| 2026-05-05 05:42 | 12.30497 | -80.15564 | 34966 ft | 474 kts | 172° |
| 2026-05-05 05:43 | 12.24008 | -80.14473 | 34966 ft | 474 kts | 172° |
| 2026-05-05 05:43 | 12.17503 | -80.13380 | 34966 ft | 474 kts | 172° |
| 2026-05-05 05:44 | 12.11031 | -80.12292 | 34967 ft | 474 kts | 172° |
| 2026-05-05 05:44 | 12.04522 | -80.11198 | 34966 ft | 474 kts | 172° |
| 2026-05-05 05:45 | 11.98059 | -80.10113 | 34967 ft | 474 kts | 172° |
| 2026-05-05 05:45 | 11.91579 | -80.09026 | 34967 ft | 474 kts | 172° |
| 2026-05-05 05:46 | 11.85076 | -80.07935 | 34967 ft | 474 kts | 172° |
| 2026-05-05 05:46 | 11.78604 | -80.06850 | 34967 ft | 474 kts | 172° |
| 2026-05-05 05:47 | 11.72111 | -80.05763 | 34967 ft | 473 kts | 172° |
| 2026-05-05 05:47 | 11.65643 | -80.04680 | 34967 ft | 472 kts | 172° |
| 2026-05-05 05:48 | 11.59219 | -80.03605 | 34967 ft | 472 kts | 172° |
| 2026-05-05 05:48 | 11.52763 | -80.02525 | 34967 ft | 472 kts | 172° |
| 2026-05-05 05:49 | 11.46287 | -80.01442 | 34967 ft | 472 kts | 172° |
| 2026-05-05 05:49 | 11.39823 | -80.00361 | 34959 ft | 472 kts | 172° |
| 2026-05-05 05:50 | 11.33347 | -79.99279 | 34960 ft | 472 kts | 172° |
| 2026-05-05 05:50 | 11.26883 | -79.98199 | 34960 ft | 472 kts | 172° |
| 2026-05-05 05:51 | 11.20452 | -79.97126 | 34954 ft | 469 kts | 172° |
| 2026-05-05 05:51 | 11.14004 | -79.96050 | 34955 ft | 470 kts | 172° |
| 2026-05-05 05:52 | 11.07594 | -79.94981 | 34955 ft | 471 kts | 172° |
| 2026-05-05 05:52 | 11.01135 | -79.93905 | 34955 ft | 471 kts | 172° |
| 2026-05-05 05:53 | 10.94696 | -79.92832 | 34955 ft | 471 kts | 172° |
| 2026-05-05 05:53 | 10.88204 | -79.91751 | 34955 ft | 471 kts | 172° |
| 2026-05-05 05:54 | 10.81749 | -79.90676 | 34956 ft | 471 kts | 172° |
| 2026-05-05 05:54 | 10.75280 | -79.89600 | 34956 ft | 471 kts | 172° |
| 2026-05-05 05:55 | 10.68843 | -79.88530 | 34952 ft | 472 kts | 172° |
| 2026-05-05 05:55 | 10.62365 | -79.87453 | 34951 ft | 472 kts | 172° |
| 2026-05-05 05:56 | 10.55913 | -79.86380 | 34951 ft | 472 kts | 172° |
| 2026-05-05 05:56 | 10.49453 | -79.85307 | 34951 ft | 472 kts | 172° |
| 2026-05-05 05:57 | 10.42982 | -79.84232 | 34951 ft | 472 kts | 172° |
| 2026-05-05 05:57 | 10.36521 | -79.83130 | 34951 ft | 472 kts | 171° |
| 2026-05-05 05:58 | 10.30052 | -79.82021 | 34951 ft | 472 kts | 171° |
| 2026-05-05 05:58 | 10.23600 | -79.80914 | 34950 ft | 472 kts | 171° |
| 2026-05-05 05:59 | 10.17141 | -79.79808 | 34946 ft | 469 kts | 171° |
| 2026-05-05 05:59 | 10.10722 | -79.78709 | 34946 ft | 469 kts | 171° |
| 2026-05-05 06:00 | 10.04311 | -79.77611 | 34946 ft | 469 kts | 171° |
| 2026-05-05 06:00 | 9.97901 | -79.76514 | 34914 ft | 472 kts | 171° |
| 2026-05-05 06:01 | 9.91401 | -79.75402 | 34915 ft | 475 kts | 171° |
| 2026-05-05 06:01 | 9.84899 | -79.74290 | 34916 ft | 479 kts | 171° |
| 2026-05-05 06:02 | 9.78334 | -79.73168 | 34915 ft | 478 kts | 171° |
| 2026-05-05 06:02 | 9.71804 | -79.72053 | 34930 ft | 476 kts | 171° |
| 2026-05-05 06:03 | 9.65302 | -79.70941 | 34933 ft | 474 kts | 171° |
| 2026-05-05 06:03 | 9.58807 | -79.69833 | 34933 ft | 475 kts | 171° |
| 2026-05-05 06:04 | 9.52306 | -79.68723 | 34933 ft | 475 kts | 171° |
| 2026-05-05 06:04 | 9.45794 | -79.67609 | 34933 ft | 475 kts | 171° |
| 2026-05-05 06:05 | 9.39335 | -79.66516 | 34930 ft | 475 kts | 170° |
| 2026-05-05 06:05 | 9.32821 | -79.65395 | 34933 ft | 475 kts | 171° |
| 2026-05-05 06:06 | 9.26332 | -79.64293 | 34933 ft | 475 kts | 171° |
| 2026-05-05 06:06 | 9.19828 | -79.63186 | 34912 ft | 473 kts | 171° |
| 2026-05-05 06:07 | 9.13330 | -79.62080 | 34914 ft | 473 kts | 171° |
| 2026-05-05 06:07 | 9.06838 | -79.60975 | 34913 ft | 473 kts | 171° |
| 2026-05-05 06:08 | 9.00366 | -79.59874 | 34913 ft | 473 kts | 171° |
| 2026-05-05 06:08 | 8.93892 | -79.58772 | 34914 ft | 473 kts | 171° |
| 2026-05-05 06:09 | 8.87403 | -79.57669 | 34914 ft | 473 kts | 171° |
| 2026-05-05 06:09 | 8.80932 | -79.56570 | 34914 ft | 473 kts | 171° |
| 2026-05-05 06:10 | 8.74422 | -79.55675 | 34914 ft | 473 kts | 174° |
| 2026-05-05 06:10 | 8.67909 | -79.54913 | 34914 ft | 475 kts | 174° |
| 2026-05-05 06:11 | 8.61331 | -79.54137 | 34913 ft | 474 kts | 174° |
| 2026-05-05 06:11 | 8.54811 | -79.53366 | 34913 ft | 474 kts | 174° |
| 2026-05-05 06:12 | 8.48272 | -79.52593 | 34913 ft | 474 kts | 174° |
| 2026-05-05 06:12 | 8.41738 | -79.51820 | 34913 ft | 474 kts | 174° |
| 2026-05-05 06:13 | 8.35214 | -79.51049 | 34913 ft | 474 kts | 174° |
| 2026-05-05 06:13 | 8.28672 | -79.50276 | 34913 ft | 474 kts | 174° |
| 2026-05-05 06:14 | 8.22130 | -79.49505 | 34896 ft | 476 kts | 173° |
| 2026-05-05 06:14 | 8.15585 | -79.48732 | 34885 ft | 473 kts | 173° |
| 2026-05-05 06:15 | 8.09061 | -79.47961 | 34886 ft | 474 kts | 173° |
| 2026-05-05 06:15 | 8.02548 | -79.47189 | 34887 ft | 474 kts | 173° |
| 2026-05-05 06:16 | 7.95993 | -79.46416 | 34886 ft | 474 kts | 173° |
| 2026-05-05 06:16 | 7.89466 | -79.45648 | 34886 ft | 474 kts | 173° |
| 2026-05-05 06:17 | 7.82965 | -79.44883 | 34885 ft | 474 kts | 173° |
| 2026-05-05 06:17 | 7.76417 | -79.44112 | 34885 ft | 474 kts | 173° |
| 2026-05-05 06:18 | 7.69914 | -79.43345 | 34884 ft | 469 kts | 173° |
| 2026-05-05 06:18 | 7.63457 | -79.42585 | 34886 ft | 471 kts | 173° |
| 2026-05-05 06:19 | 7.56960 | -79.41820 | 34886 ft | 471 kts | 173° |
| 2026-05-05 06:19 | 7.50488 | -79.41058 | 34886 ft | 471 kts | 173° |
| 2026-05-05 06:20 | 7.43966 | -79.40291 | 34885 ft | 471 kts | 173° |
| 2026-05-05 06:20 | 7.37484 | -79.39529 | 34885 ft | 472 kts | 173° |
| 2026-05-05 06:21 | 7.30989 | -79.38764 | 34885 ft | 472 kts | 173° |
| 2026-05-05 06:21 | 7.24487 | -79.37991 | 34885 ft | 472 kts | 173° |
| 2026-05-05 06:22 | 7.18026 | -79.37221 | 34884 ft | 469 kts | 172° |
| 2026-05-05 06:22 | 7.11549 | -79.36449 | 34885 ft | 470 kts | 172° |
| 2026-05-05 06:23 | 7.05075 | -79.35677 | 34885 ft | 470 kts | 172° |
| 2026-05-05 06:23 | 6.98618 | -79.34907 | 34885 ft | 470 kts | 172° |
| 2026-05-05 06:24 | 6.92170 | -79.34140 | 34886 ft | 470 kts | 172° |
| 2026-05-05 06:24 | 6.85690 | -79.33369 | 34887 ft | 470 kts | 172° |
| 2026-05-05 06:25 | 6.79201 | -79.32596 | 34887 ft | 470 kts | 172° |
| 2026-05-05 06:25 | 6.72757 | -79.31830 | 34887 ft | 469 kts | 172° |
| 2026-05-05 06:26 | 6.66288 | -79.31061 | 34888 ft | 470 kts | 172° |
| 2026-05-05 06:26 | 6.59811 | -79.30290 | 34886 ft | 470 kts | 172° |
| 2026-05-05 06:27 | 6.50097 | -79.29134 | 34887 ft | 470 kts | 172° |
| 2026-05-05 06:28 | 6.43616 | -79.28365 | 34887 ft | 470 kts | 172° |
| 2026-05-05 06:28 | 6.37125 | -79.27593 | 34887 ft | 470 kts | 172° |
| 2026-05-05 06:29 | 6.30668 | -79.26826 | 34887 ft | 470 kts | 172° |
| 2026-05-05 06:29 | 6.24189 | -79.26057 | 34887 ft | 470 kts | 172° |
| 2026-05-05 06:30 | 6.17730 | -79.25288 | 34885 ft | 472 kts | 172° |
| 2026-05-05 06:30 | 6.11228 | -79.24512 | 34886 ft | 471 kts | 172° |
| 2026-05-05 06:31 | 6.04732 | -79.23745 | 34887 ft | 470 kts | 172° |
| 2026-05-05 06:31 | 5.98280 | -79.22980 | 34887 ft | 470 kts | 172° |
| 2026-05-05 06:32 | 5.91774 | -79.22214 | 34886 ft | 470 kts | 172° |
| 2026-05-05 06:32 | 5.85328 | -79.21466 | 34887 ft | 469 kts | 172° |
| 2026-05-05 06:33 | 5.78857 | -79.20714 | 34887 ft | 469 kts | 172° |
| 2026-05-05 06:33 | 5.72385 | -79.19961 | 34887 ft | 468 kts | 172° |
| 2026-05-05 06:34 | 5.65951 | -79.19207 | 34888 ft | 467 kts | 172° |
| 2026-05-05 06:34 | 5.59534 | -79.18466 | 34887 ft | 467 kts | 172° |
| 2026-05-05 06:35 | 5.53105 | -79.17726 | 34887 ft | 467 kts | 172° |
| 2026-05-05 06:35 | 5.46642 | -79.16974 | 34886 ft | 467 kts | 172° |
| 2026-05-05 06:36 | 5.40233 | -79.16231 | 34886 ft | 467 kts | 172° |
| 2026-05-05 06:36 | 5.33784 | -79.15482 | 34886 ft | 467 kts | 172° |
| 2026-05-05 06:37 | 5.27351 | -79.14736 | 34886 ft | 467 kts | 172° |
| 2026-05-05 06:37 | 5.20917 | -79.13990 | 34886 ft | 468 kts | 172° |
| 2026-05-05 06:38 | 5.14465 | -79.13242 | 34886 ft | 469 kts | 172° |
| 2026-05-05 06:38 | 5.07974 | -79.12490 | 34886 ft | 469 kts | 172° |
| 2026-05-05 06:39 | 5.01512 | -79.11742 | 34886 ft | 469 kts | 172° |
| 2026-05-05 06:39 | 4.95079 | -79.10996 | 34886 ft | 469 kts | 172° |
| 2026-05-05 06:40 | 4.88591 | -79.10245 | 34886 ft | 469 kts | 172° |
| 2026-05-05 06:40 | 4.82241 | -79.09509 | 34886 ft | 469 kts | 172° |
| 2026-05-05 06:41 | 4.75752 | -79.08758 | 34886 ft | 469 kts | 172° |
| 2026-05-05 06:41 | 4.69307 | -79.08015 | 34913 ft | 469 kts | 171° |
| 2026-05-05 06:42 | 4.62837 | -79.07264 | 34913 ft | 471 kts | 171° |
| 2026-05-05 06:42 | 4.56317 | -79.06509 | 34913 ft | 473 kts | 171° |
| 2026-05-05 06:43 | 4.49797 | -79.05754 | 34913 ft | 474 kts | 171° |
| 2026-05-05 06:43 | 4.43248 | -79.04997 | 34913 ft | 475 kts | 171° |
| 2026-05-05 06:44 | 4.36731 | -79.04243 | 34913 ft | 475 kts | 171° |
| 2026-05-05 06:44 | 4.30154 | -79.03482 | 34913 ft | 475 kts | 171° |
| 2026-05-05 06:45 | 4.23623 | -79.02727 | 34914 ft | 475 kts | 171° |
| 2026-05-05 06:45 | 4.17101 | -79.01973 | 34914 ft | 476 kts | 171° |
| 2026-05-05 06:46 | 4.10540 | -79.01215 | 34887 ft | 476 kts | 171° |
| 2026-05-05 06:46 | 4.03988 | -79.00458 | 34887 ft | 476 kts | 171° |
| 2026-05-05 06:47 | 3.97405 | -78.99697 | 34887 ft | 476 kts | 171° |
| 2026-05-05 06:47 | 3.90886 | -78.98944 | 34887 ft | 476 kts | 171° |
| 2026-05-05 06:48 | 3.84336 | -78.98187 | 34885 ft | 476 kts | 171° |
| 2026-05-05 06:48 | 3.77756 | -78.97427 | 34885 ft | 476 kts | 171° |
| 2026-05-05 06:49 | 3.71189 | -78.96669 | 34885 ft | 478 kts | 171° |
| 2026-05-05 06:49 | 3.64611 | -78.95910 | 34885 ft | 477 kts | 171° |
| 2026-05-05 06:50 | 3.58043 | -78.95152 | 34885 ft | 476 kts | 171° |
| 2026-05-05 06:50 | 3.51480 | -78.94394 | 34886 ft | 476 kts | 171° |
| 2026-05-05 06:51 | 3.44958 | -78.93642 | 34886 ft | 476 kts | 171° |
| 2026-05-05 06:51 | 3.38383 | -78.92883 | 34886 ft | 476 kts | 171° |
| 2026-05-05 06:52 | 3.31831 | -78.92127 | 34886 ft | 476 kts | 171° |
| 2026-05-05 06:52 | 3.25250 | -78.91367 | 34886 ft | 476 kts | 171° |
| 2026-05-05 06:53 | 3.18731 | -78.90619 | 34885 ft | 472 kts | 171° |
| 2026-05-05 06:53 | 3.12218 | -78.89866 | 34886 ft | 470 kts | 171° |
| 2026-05-05 06:54 | 3.05773 | -78.89122 | 34886 ft | 470 kts | 171° |
| 2026-05-05 06:54 | 2.99313 | -78.88377 | 34885 ft | 470 kts | 171° |
| 2026-05-05 06:55 | 2.92839 | -78.87631 | 34885 ft | 470 kts | 171° |
| 2026-05-05 06:55 | 2.86579 | -78.86909 | 34885 ft | 470 kts | 171° |
| 2026-05-05 06:56 | 2.80119 | -78.86164 | 34912 ft | 470 kts | 171° |
| 2026-05-05 06:56 | 2.73616 | -78.85415 | 34912 ft | 470 kts | 171° |
| 2026-05-05 06:57 | 2.67131 | -78.84667 | 34912 ft | 473 kts | 171° |
| 2026-05-05 06:57 | 2.60617 | -78.83917 | 34912 ft | 472 kts | 171° |
| 2026-05-05 06:58 | 2.54107 | -78.83167 | 34912 ft | 472 kts | 171° |
| 2026-05-05 06:58 | 2.47614 | -78.82419 | 34912 ft | 472 kts | 171° |
| 2026-05-05 06:59 | 2.41117 | -78.81670 | 34912 ft | 472 kts | 171° |
| 2026-05-05 06:59 | 2.34568 | -78.80917 | 34912 ft | 472 kts | 171° |
| 2026-05-05 07:00 | 2.28090 | -78.80170 | 34912 ft | 472 kts | 171° |
| 2026-05-05 07:00 | 2.21558 | -78.79419 | 34912 ft | 474 kts | 171° |
| 2026-05-05 07:01 | 2.15029 | -78.78667 | 34912 ft | 477 kts | 171° |
| 2026-05-05 07:01 | 2.08423 | -78.77906 | 34913 ft | 478 kts | 171° |
| 2026-05-05 07:02 | 2.01854 | -78.77150 | 34913 ft | 478 kts | 171° |
| 2026-05-05 07:02 | 1.95290 | -78.76394 | 34913 ft | 478 kts | 171° |
| 2026-05-05 07:03 | 1.88674 | -78.75633 | 34912 ft | 478 kts | 171° |
| 2026-05-05 07:03 | 1.82112 | -78.74877 | 34911 ft | 478 kts | 171° |
| 2026-05-05 07:04 | 1.75551 | -78.74073 | 34911 ft | 477 kts | 171° |
| 2026-05-05 07:04 | 1.68969 | -78.73261 | 34911 ft | 479 kts | 171° |
| 2026-05-05 07:05 | 1.62376 | -78.72448 | 34911 ft | 480 kts | 171° |
| 2026-05-05 07:05 | 1.55755 | -78.71631 | 34912 ft | 480 kts | 171° |
| 2026-05-05 07:06 | 1.49145 | -78.70816 | 34912 ft | 480 kts | 171° |
| 2026-05-05 07:06 | 1.42572 | -78.70005 | 34912 ft | 480 kts | 171° |
| 2026-05-05 07:07 | 1.35950 | -78.69189 | 34912 ft | 480 kts | 171° |
| 2026-05-05 07:07 | 1.29367 | -78.68352 | 34912 ft | 479 kts | 170° |
| 2026-05-05 07:08 | 1.22753 | -78.67488 | 34912 ft | 480 kts | 170° |
| 2026-05-05 07:08 | 1.16125 | -78.66624 | 34912 ft | 480 kts | 170° |
| 2026-05-05 07:09 | 1.09547 | -78.65765 | 34912 ft | 480 kts | 170° |
| 2026-05-05 07:09 | 1.02958 | -78.64906 | 34913 ft | 480 kts | 170° |
| 2026-05-05 07:10 | 0.96329 | -78.64042 | 34916 ft | 480 kts | 170° |
| 2026-05-05 07:10 | 0.89765 | -78.63184 | 34981 ft | 479 kts | 170° |
| 2026-05-05 07:11 | 0.83137 | -78.62322 | 35117 ft | 480 kts | 170° |
| 2026-05-05 07:11 | 0.76537 | -78.61462 | 35254 ft | 480 kts | 170° |
| 2026-05-05 07:12 | 0.69935 | -78.60601 | 35387 ft | 479 kts | 171° |
| 2026-05-05 07:12 | 0.63336 | -78.59740 | 35394 ft | 482 kts | 171° |
| 2026-05-05 07:13 | 0.56685 | -78.58875 | 35267 ft | 481 kts | 171° |
| 2026-05-05 07:13 | 0.50055 | -78.58010 | 35208 ft | 481 kts | 171° |
| 2026-05-05 07:14 | 0.43437 | -78.57164 | 35209 ft | 481 kts | 171° |
| 2026-05-05 07:14 | 0.36811 | -78.56317 | 35209 ft | 481 kts | 171° |
| 2026-05-05 07:15 | 0.30154 | -78.55466 | 35209 ft | 481 kts | 171° |
| 2026-05-05 07:15 | 0.23674 | -78.54639 | 35223 ft | 481 kts | 171° |
| 2026-05-05 07:16 | 0.17030 | -78.53790 | 35209 ft | 482 kts | 171° |
| 2026-05-05 07:16 | 0.10378 | -78.52940 | 35210 ft | 482 kts | 171° |
| 2026-05-05 07:17 | 0.03785 | -78.52098 | 35210 ft | 482 kts | 171° |
| 2026-05-05 07:17 | -0.02887 | -78.51199 | 35213 ft | 485 kts | 167° |
| 2026-05-05 07:18 | -0.09276 | -78.49372 | 35209 ft | 478 kts | 160° |
| 2026-05-05 07:18 | -0.15622 | -78.47387 | 35220 ft | 475 kts | 160° |
| 2026-05-05 07:19 | -0.21923 | -78.45412 | 35239 ft | 482 kts | 161° |
| 2026-05-05 07:19 | -0.28390 | -78.43353 | 35208 ft | 490 kts | 160° |
| 2026-05-05 07:19 | -0.31591 | -78.42332 | 35156 ft | 476 kts | 161° |
| 2026-05-05 07:20 | -0.34661 | -78.41363 | 35205 ft | 456 kts | 159° |
| 2026-05-05 07:20 | -0.37620 | -78.40431 | 35181 ft | 439 kts | 160° |
| 2026-05-05 07:20 | -0.40530 | -78.39508 | 35206 ft | 440 kts | 160° |
| 2026-05-05 07:21 | -0.46456 | -78.37630 | 35274 ft | 460 kts | 159° |
| 2026-05-05 07:21 | -0.52479 | -78.35718 | 35211 ft | 455 kts | 160° |
| 2026-05-05 07:22 | -0.58539 | -78.33804 | 35253 ft | 454 kts | 160° |
| 2026-05-05 07:22 | -0.64625 | -78.31876 | 35394 ft | 467 kts | 160° |
| 2026-05-05 07:23 | -0.70917 | -78.29879 | 35512 ft | 481 kts | 160° |
| 2026-05-05 07:23 | -0.77291 | -78.27861 | 35509 ft | 482 kts | 160° |
| 2026-05-05 07:24 | -0.83669 | -78.25841 | 35510 ft | 482 kts | 160° |
| 2026-05-05 07:24 | -0.90070 | -78.23813 | 35510 ft | 483 kts | 160° |
| 2026-05-05 07:25 | -0.96474 | -78.21784 | 35507 ft | 483 kts | 160° |
| 2026-05-05 07:25 | -1.02840 | -78.19767 | 35403 ft | 483 kts | 160° |
| 2026-05-05 07:26 | -1.09237 | -78.17741 | 35403 ft | 483 kts | 160° |
| 2026-05-05 07:26 | -1.15642 | -78.15713 | 35398 ft | 483 kts | 160° |
| 2026-05-05 07:27 | -1.22027 | -78.13693 | 35288 ft | 483 kts | 160° |
| 2026-05-05 07:27 | -1.28419 | -78.11670 | 35151 ft | 484 kts | 160° |
| 2026-05-05 07:28 | -1.34828 | -78.09641 | 35073 ft | 484 kts | 160° |
| 2026-05-05 07:28 | -1.41250 | -78.07610 | 35075 ft | 485 kts | 160° |
| 2026-05-05 07:29 | -1.47647 | -78.05585 | 35075 ft | 485 kts | 160° |
| 2026-05-05 07:29 | -1.53934 | -78.03197 | 35079 ft | 482 kts | 152° |
| 2026-05-05 07:30 | -1.60005 | -78.00352 | 35075 ft | 482 kts | 152° |
| 2026-05-05 07:30 | -1.69104 | -77.96070 | 35076 ft | 482 kts | 152° |
| 2026-05-05 07:31 | -1.75151 | -77.93218 | 35076 ft | 482 kts | 152° |
| 2026-05-05 07:31 | -1.81188 | -77.90369 | 35076 ft | 484 kts | 152° |
| 2026-05-05 07:32 | -1.87292 | -77.87488 | 35076 ft | 484 kts | 152° |
| 2026-05-05 07:32 | -1.93363 | -77.84623 | 35077 ft | 484 kts | 152° |
| 2026-05-05 07:33 | -1.99405 | -77.81770 | 35104 ft | 484 kts | 152° |
| 2026-05-05 07:33 | -2.05509 | -77.78889 | 35104 ft | 484 kts | 152° |
| 2026-05-05 07:34 | -2.11554 | -77.76035 | 35101 ft | 484 kts | 152° |
| 2026-05-05 07:34 | -2.17645 | -77.73158 | 35099 ft | 484 kts | 153° |
| 2026-05-05 07:35 | -2.23743 | -77.70278 | 35100 ft | 486 kts | 153° |
| 2026-05-05 07:35 | -2.29839 | -77.67397 | 35100 ft | 484 kts | 153° |
| 2026-05-05 07:36 | -2.35932 | -77.64521 | 35101 ft | 485 kts | 153° |
| 2026-05-05 07:36 | -2.41994 | -77.61658 | 35101 ft | 485 kts | 153° |
| 2026-05-05 07:37 | -2.48093 | -77.58777 | 35101 ft | 485 kts | 153° |
| 2026-05-05 07:37 | -2.54195 | -77.55894 | 35102 ft | 485 kts | 153° |
| 2026-05-05 07:38 | -2.60291 | -77.53013 | 35102 ft | 485 kts | 153° |
| 2026-05-05 07:38 | -2.66372 | -77.50139 | 35102 ft | 485 kts | 153° |
| 2026-05-05 07:39 | -2.72473 | -77.47255 | 35102 ft | 485 kts | 153° |
| 2026-05-05 07:39 | -2.78531 | -77.44392 | 35102 ft | 483 kts | 153° |
| 2026-05-05 07:40 | -2.84591 | -77.41528 | 35103 ft | 483 kts | 153° |
| 2026-05-05 07:40 | -2.90695 | -77.38644 | 35103 ft | 483 kts | 153° |
| 2026-05-05 07:41 | -2.96726 | -77.35796 | 35103 ft | 483 kts | 153° |
| 2026-05-05 07:41 | -3.02809 | -77.32923 | 35105 ft | 483 kts | 153° |
| 2026-05-05 07:42 | -3.08857 | -77.30067 | 35105 ft | 483 kts | 153° |
| 2026-05-05 07:42 | -3.14932 | -77.27197 | 35101 ft | 483 kts | 153° |
| 2026-05-05 07:43 | -3.20991 | -77.24335 | 35101 ft | 483 kts | 153° |
| 2026-05-05 07:43 | -3.27086 | -77.21455 | 35102 ft | 484 kts | 153° |
| 2026-05-05 07:44 | -3.33122 | -77.18603 | 35102 ft | 481 kts | 153° |
| 2026-05-05 07:44 | -3.39190 | -77.15735 | 35048 ft | 481 kts | 153° |
| 2026-05-05 07:45 | -3.45234 | -77.12878 | 34939 ft | 480 kts | 153° |
| 2026-05-05 07:45 | -3.51223 | -77.10056 | 34943 ft | 481 kts | 153° |
| 2026-05-05 07:46 | -3.57281 | -77.07184 | 34941 ft | 481 kts | 153° |
| 2026-05-05 07:46 | -3.63293 | -77.04340 | 34940 ft | 481 kts | 153° |
| 2026-05-05 07:47 | -3.69320 | -77.01489 | 34941 ft | 481 kts | 153° |
| 2026-05-05 07:47 | -3.75388 | -76.98617 | 34941 ft | 481 kts | 153° |
| 2026-05-05 07:48 | -3.81451 | -76.95748 | 34942 ft | 486 kts | 153° |
| 2026-05-05 07:48 | -3.87526 | -76.92874 | 34941 ft | 485 kts | 153° |
| 2026-05-05 07:49 | -3.93624 | -76.89988 | 34942 ft | 485 kts | 153° |
| 2026-05-05 07:49 | -3.99681 | -76.87121 | 34942 ft | 485 kts | 153° |
| 2026-05-05 07:50 | -4.05778 | -76.84234 | 34942 ft | 485 kts | 153° |
| 2026-05-05 07:50 | -4.11837 | -76.81365 | 34938 ft | 485 kts | 153° |
| 2026-05-05 07:51 | -4.17947 | -76.78472 | 34938 ft | 485 kts | 153° |
| 2026-05-05 07:51 | -4.24024 | -76.75594 | 34938 ft | 485 kts | 153° |
| 2026-05-05 07:52 | -4.30105 | -76.72713 | 34938 ft | 484 kts | 153° |
| 2026-05-05 07:52 | -4.36159 | -76.69844 | 34938 ft | 482 kts | 153° |
| 2026-05-05 07:53 | -4.42216 | -76.66973 | 34939 ft | 482 kts | 153° |
| 2026-05-05 07:53 | -4.48266 | -76.64106 | 34939 ft | 482 kts | 153° |
| 2026-05-05 07:54 | -4.54322 | -76.61234 | 34939 ft | 482 kts | 153° |
| 2026-05-05 07:54 | -4.60347 | -76.58377 | 34939 ft | 482 kts | 153° |
| 2026-05-05 07:55 | -4.66401 | -76.55506 | 34939 ft | 482 kts | 153° |
| 2026-05-05 07:55 | -4.72432 | -76.52645 | 34940 ft | 482 kts | 153° |
| 2026-05-05 07:56 | -4.78510 | -76.49761 | 34940 ft | 481 kts | 153° |
| 2026-05-05 07:56 | -4.84506 | -76.46915 | 34940 ft | 480 kts | 153° |
| 2026-05-05 07:57 | -4.90544 | -76.44050 | 34940 ft | 481 kts | 153° |
| 2026-05-05 07:57 | -4.96596 | -76.41182 | 34941 ft | 481 kts | 153° |
| 2026-05-05 07:58 | -5.02628 | -76.38318 | 34939 ft | 481 kts | 152° |
| 2026-05-05 07:58 | -5.08643 | -76.35464 | 34940 ft | 481 kts | 153° |
| 2026-05-05 07:59 | -5.14702 | -76.32580 | 34939 ft | 481 kts | 153° |
| 2026-05-05 07:59 | -5.20724 | -76.29717 | 34940 ft | 481 kts | 153° |
| 2026-05-05 08:00 | -5.26768 | -76.26844 | 34940 ft | 480 kts | 153° |
| 2026-05-05 08:00 | -5.32789 | -76.23982 | 34940 ft | 480 kts | 153° |
| 2026-05-05 08:01 | -5.38672 | -76.20904 | 34940 ft | 476 kts | 149° |
| 2026-05-05 08:01 | -5.44483 | -76.17733 | 34940 ft | 477 kts | 149° |
| 2026-05-05 08:02 | -5.50307 | -76.14562 | 34940 ft | 477 kts | 149° |
| 2026-05-05 08:02 | -5.56138 | -76.11387 | 34940 ft | 477 kts | 149° |
| 2026-05-05 08:03 | -5.61955 | -76.08221 | 34941 ft | 477 kts | 149° |
| 2026-05-05 08:03 | -5.67792 | -76.05043 | 34941 ft | 477 kts | 149° |
| 2026-05-05 08:04 | -5.73624 | -76.01868 | 34941 ft | 477 kts | 149° |
| 2026-05-05 08:04 | -5.79435 | -75.98701 | 34941 ft | 479 kts | 149° |
| 2026-05-05 08:05 | -5.85289 | -75.95513 | 34941 ft | 481 kts | 150° |
| 2026-05-05 08:05 | -5.91152 | -75.92319 | 34941 ft | 480 kts | 150° |
| 2026-05-05 08:06 | -5.97034 | -75.89113 | 34941 ft | 480 kts | 150° |
| 2026-05-05 08:06 | -6.02872 | -75.85930 | 34941 ft | 480 kts | 150° |
| 2026-05-05 08:07 | -6.08739 | -75.82732 | 34942 ft | 480 kts | 150° |
| 2026-05-05 08:07 | -6.14608 | -75.79530 | 34938 ft | 480 kts | 150° |
| 2026-05-05 08:08 | -6.20466 | -75.76334 | 34938 ft | 480 kts | 150° |
| 2026-05-05 08:08 | -6.26294 | -75.73154 | 34938 ft | 479 kts | 149° |
| 2026-05-05 08:09 | -6.32174 | -75.69944 | 34939 ft | 482 kts | 149° |
| 2026-05-05 08:09 | -6.38040 | -75.66741 | 34939 ft | 481 kts | 149° |
| 2026-05-05 08:10 | -6.43903 | -75.63539 | 34939 ft | 481 kts | 149° |
| 2026-05-05 08:10 | -6.49804 | -75.60316 | 35010 ft | 480 kts | 149° |
| 2026-05-05 08:11 | -6.55672 | -75.57109 | 35047 ft | 481 kts | 149° |
| 2026-05-05 08:11 | -6.61527 | -75.53909 | 35047 ft | 481 kts | 149° |
| 2026-05-05 08:12 | -6.67377 | -75.50710 | 35047 ft | 481 kts | 149° |
| 2026-05-05 08:12 | -6.73244 | -75.47501 | 35048 ft | 481 kts | 149° |
| 2026-05-05 08:13 | -6.79133 | -75.44280 | 35047 ft | 480 kts | 149° |
| 2026-05-05 08:13 | -6.84966 | -75.41089 | 35048 ft | 480 kts | 149° |
| 2026-05-05 08:14 | -6.90794 | -75.37898 | 35048 ft | 480 kts | 149° |
| 2026-05-05 08:14 | -6.96662 | -75.34686 | 35049 ft | 480 kts | 149° |
| 2026-05-05 08:15 | -7.02515 | -75.31481 | 35051 ft | 480 kts | 149° |
| 2026-05-05 08:15 | -7.08344 | -75.28288 | 35051 ft | 480 kts | 149° |
| 2026-05-05 08:16 | -7.14216 | -75.25070 | 35047 ft | 480 kts | 149° |
| 2026-05-05 08:16 | -7.20069 | -75.21862 | 34975 ft | 480 kts | 149° |
| 2026-05-05 08:17 | -7.25909 | -75.18660 | 34967 ft | 480 kts | 149° |
| 2026-05-05 08:17 | -7.31743 | -75.15459 | 34966 ft | 479 kts | 149° |
| 2026-05-05 08:18 | -7.37617 | -75.12238 | 34967 ft | 479 kts | 149° |
| 2026-05-05 08:18 | -7.43456 | -75.09033 | 34967 ft | 479 kts | 149° |
| 2026-05-05 08:19 | -7.49291 | -75.05830 | 34967 ft | 479 kts | 149° |
| 2026-05-05 08:19 | -7.55141 | -75.02618 | 34967 ft | 479 kts | 149° |
| 2026-05-05 08:20 | -7.60955 | -74.99424 | 34967 ft | 479 kts | 149° |
| 2026-05-05 08:20 | -7.66813 | -74.96206 | 34967 ft | 479 kts | 149° |
| 2026-05-05 08:21 | -7.72658 | -74.92993 | 34967 ft | 479 kts | 149° |
| 2026-05-05 08:21 | -7.78501 | -74.89779 | 34967 ft | 479 kts | 150° |
| 2026-05-05 08:22 | -7.84336 | -74.86570 | 34968 ft | 479 kts | 150° |
| 2026-05-05 08:22 | -7.90192 | -74.83349 | 34968 ft | 479 kts | 150° |
| 2026-05-05 08:23 | -7.96041 | -74.80130 | 34968 ft | 479 kts | 150° |
| 2026-05-05 08:23 | -8.01870 | -74.76921 | 34968 ft | 479 kts | 150° |
| 2026-05-05 08:24 | -8.07701 | -74.73711 | 34968 ft | 480 kts | 150° |
| 2026-05-05 08:24 | -8.13571 | -74.70476 | 34965 ft | 483 kts | 150° |
| 2026-05-05 08:25 | -8.19451 | -74.67236 | 34965 ft | 483 kts | 150° |
| 2026-05-05 08:25 | -8.25338 | -74.63991 | 34965 ft | 483 kts | 150° |
| 2026-05-05 08:26 | -8.31242 | -74.60735 | 34966 ft | 484 kts | 150° |
| 2026-05-05 08:26 | -8.37121 | -74.57491 | 34966 ft | 483 kts | 150° |
| 2026-05-05 08:27 | -8.42910 | -74.54080 | 34966 ft | 483 kts | 148° |
| 2026-05-05 08:27 | -8.48718 | -74.50629 | 34966 ft | 483 kts | 148° |
| 2026-05-05 08:28 | -8.54476 | -74.47208 | 34967 ft | 483 kts | 148° |
| 2026-05-05 08:28 | -8.60273 | -74.43762 | 34967 ft | 483 kts | 148° |
| 2026-05-05 08:29 | -8.66043 | -74.40334 | 34967 ft | 483 kts | 148° |
| 2026-05-05 08:30 | -8.74737 | -74.35163 | 34967 ft | 483 kts | 148° |
| 2026-05-05 08:30 | -8.80504 | -74.31732 | 34967 ft | 480 kts | 148° |
| 2026-05-05 08:31 | -8.86268 | -74.28302 | 34968 ft | 481 kts | 148° |
| 2026-05-05 08:31 | -8.92031 | -74.24871 | 34968 ft | 481 kts | 148° |
| 2026-05-05 08:32 | -8.97780 | -74.21446 | 34969 ft | 484 kts | 148° |
| 2026-05-05 08:32 | -9.03546 | -74.18012 | 34969 ft | 483 kts | 148° |
| 2026-05-05 08:33 | -9.09324 | -74.14568 | 34969 ft | 483 kts | 148° |
| 2026-05-05 08:33 | -9.15152 | -74.11092 | 34966 ft | 483 kts | 148° |
| 2026-05-05 08:34 | -9.20893 | -74.07667 | 34966 ft | 483 kts | 148° |
| 2026-05-05 08:34 | -9.26683 | -74.04213 | 34966 ft | 483 kts | 148° |
| 2026-05-05 08:35 | -9.32438 | -74.00779 | 34966 ft | 483 kts | 148° |
| 2026-05-05 08:35 | -9.38248 | -73.97308 | 34966 ft | 483 kts | 148° |
| 2026-05-05 08:36 | -9.43986 | -73.93881 | 34967 ft | 483 kts | 148° |
| 2026-05-05 08:36 | -9.49751 | -73.90434 | 34914 ft | 483 kts | 148° |
| 2026-05-05 08:37 | -9.55533 | -73.86978 | 34913 ft | 483 kts | 148° |
| 2026-05-05 08:37 | -9.61304 | -73.83527 | 34913 ft | 483 kts | 148° |
| 2026-05-05 08:38 | -9.67089 | -73.80064 | 34913 ft | 483 kts | 148° |
| 2026-05-05 08:38 | -9.72862 | -73.76608 | 34913 ft | 483 kts | 148° |
| 2026-05-05 08:39 | -9.78634 | -73.73152 | 34914 ft | 483 kts | 148° |
| 2026-05-05 08:39 | -9.84378 | -73.69710 | 34914 ft | 483 kts | 148° |
| 2026-05-05 08:40 | -9.90160 | -73.66245 | 34914 ft | 483 kts | 148° |
| 2026-05-05 08:40 | -9.95946 | -73.62775 | 34914 ft | 483 kts | 148° |
| 2026-05-05 08:41 | -10.01722 | -73.59310 | 34914 ft | 483 kts | 148° |
| 2026-05-05 08:41 | -10.07475 | -73.55858 | 34915 ft | 483 kts | 148° |
| 2026-05-05 08:42 | -10.12282 | -73.52972 | 34911 ft | 483 kts | 148° |
| 2026-05-05 08:42 | -10.19053 | -73.48906 | 34911 ft | 483 kts | 148° |
| 2026-05-05 08:43 | -10.24794 | -73.45457 | 34911 ft | 483 kts | 148° |
| 2026-05-05 08:43 | -10.30562 | -73.41989 | 34912 ft | 482 kts | 148° |
| 2026-05-05 08:44 | -10.36346 | -73.38512 | 34912 ft | 482 kts | 148° |
| 2026-05-05 08:44 | -10.42068 | -73.35068 | 34912 ft | 482 kts | 148° |
| 2026-05-05 08:45 | -10.47868 | -73.31577 | 34913 ft | 482 kts | 148° |
| 2026-05-05 08:45 | -10.53607 | -73.28121 | 34913 ft | 482 kts | 148° |
| 2026-05-05 08:46 | -10.59379 | -73.24644 | 34913 ft | 482 kts | 148° |
| 2026-05-05 08:46 | -10.65123 | -73.21181 | 34914 ft | 484 kts | 148° |
| 2026-05-05 08:47 | -10.70903 | -73.17696 | 34914 ft | 484 kts | 148° |
| 2026-05-05 08:47 | -10.76671 | -73.14217 | 34913 ft | 484 kts | 148° |
| 2026-05-05 08:48 | -10.82475 | -73.10714 | 34914 ft | 485 kts | 148° |
| 2026-05-05 08:48 | -10.88282 | -73.07208 | 34914 ft | 485 kts | 148° |
| 2026-05-05 08:49 | -10.94061 | -73.03718 | 34915 ft | 485 kts | 148° |
| 2026-05-05 08:49 | -10.99863 | -73.00211 | 34915 ft | 485 kts | 148° |
| 2026-05-05 08:50 | -11.05662 | -72.96705 | 34915 ft | 485 kts | 148° |
| 2026-05-05 08:50 | -11.11452 | -72.93205 | 34914 ft | 485 kts | 148° |
| 2026-05-05 08:51 | -11.17250 | -72.89695 | 34912 ft | 485 kts | 148° |
| 2026-05-05 08:51 | -11.23025 | -72.86198 | 34912 ft | 485 kts | 148° |
| 2026-05-05 08:52 | -11.28826 | -72.82683 | 34913 ft | 488 kts | 148° |
| 2026-05-05 08:52 | -11.34638 | -72.79160 | 34912 ft | 487 kts | 148° |
| 2026-05-05 08:53 | -11.40427 | -72.75656 | 34912 ft | 487 kts | 148° |
| 2026-05-05 08:53 | -11.46252 | -72.72120 | 34913 ft | 486 kts | 148° |
| 2026-05-05 08:54 | -11.52038 | -72.68607 | 34913 ft | 484 kts | 148° |
| 2026-05-05 08:54 | -11.57810 | -72.65101 | 34913 ft | 484 kts | 148° |
| 2026-05-05 08:55 | -11.63569 | -72.61602 | 34913 ft | 484 kts | 148° |
| 2026-05-05 08:55 | -11.69315 | -72.58109 | 34913 ft | 484 kts | 148° |
| 2026-05-05 08:56 | -11.75112 | -72.54584 | 34913 ft | 484 kts | 148° |
| 2026-05-05 08:56 | -11.80861 | -72.51084 | 34914 ft | 484 kts | 148° |
| 2026-05-05 08:57 | -11.86656 | -72.47557 | 34914 ft | 485 kts | 148° |
| 2026-05-05 08:57 | -11.92428 | -72.44042 | 34920 ft | 486 kts | 148° |
| 2026-05-05 08:58 | -11.98229 | -72.40507 | 35050 ft | 486 kts | 149° |
| 2026-05-05 08:58 | -12.04002 | -72.36988 | 35187 ft | 486 kts | 149° |
| 2026-05-05 08:59 | -12.09807 | -72.33448 | 35324 ft | 486 kts | 148° |
| 2026-05-05 08:59 | -12.15620 | -72.29901 | 35458 ft | 486 kts | 148° |
| 2026-05-05 09:00 | -12.21383 | -72.26382 | 35561 ft | 487 kts | 148° |
| 2026-05-05 09:00 | -12.27174 | -72.22845 | 35560 ft | 484 kts | 149° |
| 2026-05-05 09:01 | -12.32941 | -72.19319 | 35561 ft | 484 kts | 149° |
| 2026-05-05 09:01 | -12.38697 | -72.15784 | 35561 ft | 484 kts | 147° |
| 2026-05-05 09:02 | -12.44326 | -72.11974 | 35561 ft | 484 kts | 146° |
| 2026-05-05 09:02 | -12.49904 | -72.08176 | 35561 ft | 484 kts | 146° |
| 2026-05-05 09:03 | -12.55529 | -72.04370 | 35562 ft | 484 kts | 146° |
| 2026-05-05 09:03 | -12.61097 | -72.00594 | 35562 ft | 484 kts | 146° |
| 2026-05-05 09:04 | -12.66714 | -71.96783 | 35562 ft | 484 kts | 146° |
| 2026-05-05 09:04 | -12.72328 | -71.92971 | 35562 ft | 484 kts | 146° |
| 2026-05-05 09:05 | -12.77913 | -71.89176 | 35563 ft | 487 kts | 146° |
| 2026-05-05 09:05 | -12.83540 | -71.85351 | 35562 ft | 486 kts | 146° |
| 2026-05-05 09:06 | -12.89182 | -71.81513 | 35563 ft | 486 kts | 146° |
| 2026-05-05 09:06 | -12.94785 | -71.77700 | 35563 ft | 486 kts | 146° |
| 2026-05-05 09:07 | -13.00389 | -71.73884 | 35563 ft | 486 kts | 146° |
| 2026-05-05 09:07 | -13.06015 | -71.70051 | 35564 ft | 487 kts | 146° |
| 2026-05-05 09:08 | -13.11645 | -71.66213 | 35561 ft | 487 kts | 146° |
| 2026-05-05 09:08 | -13.17276 | -71.62373 | 35561 ft | 487 kts | 146° |
| 2026-05-05 09:09 | -13.22902 | -71.58534 | 35561 ft | 487 kts | 146° |
| 2026-05-05 09:09 | -13.28517 | -71.54699 | 35562 ft | 487 kts | 147° |
| 2026-05-05 09:10 | -13.34139 | -71.50857 | 35562 ft | 487 kts | 147° |
| 2026-05-05 09:10 | -13.39790 | -71.46995 | 35562 ft | 487 kts | 147° |
| 2026-05-05 09:11 | -13.45389 | -71.43165 | 35563 ft | 487 kts | 147° |
| 2026-05-05 09:11 | -13.51046 | -71.39293 | 35563 ft | 487 kts | 147° |
| 2026-05-05 09:12 | -13.57084 | -71.36269 | 35569 ft | 486 kts | 164° |
| 2026-05-05 09:12 | -13.63638 | -71.34733 | 35562 ft | 485 kts | 169° |
| 2026-05-05 09:13 | -13.70261 | -71.33329 | 35561 ft | 485 kts | 169° |
| 2026-05-05 09:13 | -13.76847 | -71.31955 | 35562 ft | 485 kts | 169° |
| 2026-05-05 09:14 | -13.83411 | -71.30592 | 35562 ft | 484 kts | 169° |
| 2026-05-05 09:14 | -13.90018 | -71.29222 | 35562 ft | 484 kts | 169° |
| 2026-05-05 09:15 | -13.96597 | -71.27858 | 35562 ft | 484 kts | 169° |
| 2026-05-05 09:15 | -14.03164 | -71.26496 | 35562 ft | 484 kts | 169° |
| 2026-05-05 09:16 | -14.09773 | -71.25124 | 35562 ft | 484 kts | 169° |
| 2026-05-05 09:16 | -14.16362 | -71.23756 | 35560 ft | 484 kts | 169° |
| 2026-05-05 09:17 | -14.22927 | -71.22392 | 35560 ft | 484 kts | 169° |
| 2026-05-05 09:17 | -14.29519 | -71.21021 | 35561 ft | 486 kts | 169° |
| 2026-05-05 09:18 | -14.36119 | -71.19649 | 35560 ft | 485 kts | 169° |
| 2026-05-05 09:18 | -14.42723 | -71.18276 | 35560 ft | 485 kts | 169° |
| 2026-05-05 09:19 | -14.49311 | -71.16903 | 35561 ft | 485 kts | 169° |
| 2026-05-05 09:19 | -14.55936 | -71.15522 | 35561 ft | 485 kts | 169° |
| 2026-05-05 09:20 | -14.62538 | -71.14145 | 35586 ft | 485 kts | 169° |
| 2026-05-05 09:20 | -14.69119 | -71.12772 | 35588 ft | 485 kts | 169° |
| 2026-05-05 09:21 | -14.75716 | -71.11395 | 35589 ft | 485 kts | 169° |
| 2026-05-05 09:21 | -14.82311 | -71.10024 | 35589 ft | 484 kts | 170° |
| 2026-05-05 09:22 | -14.88920 | -71.08640 | 35589 ft | 484 kts | 170° |
| 2026-05-05 09:22 | -14.95503 | -71.07261 | 35589 ft | 484 kts | 170° |
| 2026-05-05 09:23 | -15.02067 | -71.05886 | 35590 ft | 484 kts | 170° |
| 2026-05-05 09:23 | -15.08642 | -71.04508 | 35590 ft | 484 kts | 170° |
| 2026-05-05 09:24 | -15.15271 | -71.03119 | 35587 ft | 484 kts | 170° |
| 2026-05-05 09:24 | -15.21822 | -71.01745 | 35587 ft | 484 kts | 170° |
| 2026-05-05 09:25 | -15.28448 | -71.00354 | 35588 ft | 486 kts | 170° |
| 2026-05-05 09:25 | -15.35022 | -70.98973 | 35588 ft | 486 kts | 170° |
| 2026-05-05 09:26 | -15.41619 | -70.97587 | 35588 ft | 486 kts | 170° |
| 2026-05-05 09:26 | -15.48250 | -70.96192 | 35588 ft | 486 kts | 170° |
| 2026-05-05 09:27 | -15.54863 | -70.94801 | 35589 ft | 486 kts | 170° |
| 2026-05-05 09:27 | -15.61427 | -70.93419 | 35589 ft | 486 kts | 170° |
| 2026-05-05 09:28 | -15.68029 | -70.92027 | 35589 ft | 486 kts | 170° |
| 2026-05-05 09:28 | -15.74642 | -70.90633 | 35589 ft | 486 kts | 170° |
| 2026-05-05 09:29 | -15.81286 | -70.89231 | 35591 ft | 490 kts | 170° |
| 2026-05-05 09:29 | -15.87909 | -70.87833 | 35569 ft | 488 kts | 170° |
| 2026-05-05 09:30 | -15.94534 | -70.86433 | 35433 ft | 487 kts | 170° |
| 2026-05-05 09:30 | -16.01171 | -70.85030 | 35347 ft | 487 kts | 170° |
| 2026-05-05 09:31 | -16.07772 | -70.83634 | 35348 ft | 488 kts | 170° |
| 2026-05-05 09:31 | -16.14410 | -70.82229 | 35345 ft | 487 kts | 170° |
| 2026-05-05 09:32 | -16.21028 | -70.80827 | 35345 ft | 488 kts | 170° |
| 2026-05-05 09:32 | -16.27674 | -70.79417 | 35345 ft | 487 kts | 170° |
| 2026-05-05 09:33 | -16.34274 | -70.78017 | 35346 ft | 487 kts | 170° |
| 2026-05-05 09:33 | -16.40892 | -70.76614 | 35346 ft | 487 kts | 170° |
| 2026-05-05 09:34 | -16.47511 | -70.75211 | 35346 ft | 487 kts | 170° |
| 2026-05-05 09:34 | -16.54089 | -70.73817 | 35346 ft | 486 kts | 170° |
| 2026-05-05 09:35 | -16.60708 | -70.72411 | 35347 ft | 486 kts | 170° |
| 2026-05-05 09:35 | -16.70623 | -70.70306 | 35347 ft | 486 kts | 170° |
| 2026-05-05 09:36 | -16.77227 | -70.68900 | 35347 ft | 486 kts | 170° |
| 2026-05-05 09:36 | -16.83794 | -70.67506 | 35347 ft | 486 kts | 170° |
| 2026-05-05 09:37 | -16.90417 | -70.66096 | 35348 ft | 486 kts | 170° |
| 2026-05-05 09:37 | -16.97007 | -70.64691 | 35340 ft | 486 kts | 170° |
| 2026-05-05 09:38 | -17.03621 | -70.63281 | 35209 ft | 486 kts | 170° |
| 2026-05-05 09:38 | -17.10196 | -70.61879 | 35072 ft | 486 kts | 170° |
| 2026-05-05 09:39 | -17.16776 | -70.60474 | 34944 ft | 486 kts | 170° |
| 2026-05-05 09:39 | -17.23390 | -70.59061 | 34941 ft | 486 kts | 170° |
| 2026-05-05 09:40 | -17.29972 | -70.57653 | 34992 ft | 489 kts | 171° |
| 2026-05-05 09:40 | -17.36611 | -70.56233 | 34995 ft | 488 kts | 171° |
| 2026-05-05 09:41 | -17.43256 | -70.54811 | 34996 ft | 488 kts | 171° |
| 2026-05-05 09:41 | -17.49873 | -70.53394 | 34996 ft | 488 kts | 171° |
| 2026-05-05 09:42 | -17.56521 | -70.51968 | 34997 ft | 488 kts | 171° |
| 2026-05-05 09:42 | -17.63140 | -70.50548 | 34997 ft | 488 kts | 171° |
| 2026-05-05 09:43 | -17.69776 | -70.49123 | 34997 ft | 488 kts | 171° |
| 2026-05-05 09:43 | -17.76394 | -70.47700 | 34998 ft | 488 kts | 171° |
| 2026-05-05 09:44 | -17.83033 | -70.46271 | 34998 ft | 488 kts | 171° |
| 2026-05-05 09:44 | -17.89624 | -70.44853 | 34999 ft | 488 kts | 171° |
| 2026-05-05 09:45 | -17.96254 | -70.43425 | 34999 ft | 488 kts | 171° |
| 2026-05-05 09:45 | -18.02876 | -70.41997 | 34999 ft | 488 kts | 171° |
| 2026-05-05 09:46 | -18.09519 | -70.40565 | 35000 ft | 488 kts | 171° |
| 2026-05-05 09:46 | -18.16104 | -70.39143 | 34997 ft | 488 kts | 171° |
| 2026-05-05 09:47 | -18.22756 | -70.37707 | 34997 ft | 488 kts | 171° |
| 2026-05-05 09:47 | -18.29357 | -70.36277 | 34998 ft | 488 kts | 172° |
| 2026-05-05 09:48 | -18.36046 | -70.35240 | 35003 ft | 483 kts | 183° |
| 2026-05-05 09:48 | -18.42572 | -70.36086 | 35002 ft | 476 kts | 196° |
| 2026-05-05 09:49 | -18.49043 | -70.37548 | 34999 ft | 475 kts | 196° |
| 2026-05-05 09:49 | -18.55463 | -70.39044 | 34999 ft | 475 kts | 197° |
| 2026-05-05 09:50 | -18.61757 | -70.40530 | 34999 ft | 475 kts | 197° |
| 2026-05-05 09:50 | -18.68170 | -70.42052 | 34999 ft | 475 kts | 197° |
| 2026-05-05 09:51 | -18.74567 | -70.43572 | 34999 ft | 475 kts | 197° |
| 2026-05-05 09:51 | -18.80984 | -70.45100 | 35000 ft | 476 kts | 197° |
| 2026-05-05 09:52 | -18.87455 | -70.46641 | 34999 ft | 476 kts | 197° |
| 2026-05-05 09:52 | -18.93885 | -70.48175 | 34999 ft | 476 kts | 197° |
| 2026-05-05 09:53 | -19.00289 | -70.49704 | 35000 ft | 476 kts | 197° |
| 2026-05-05 09:53 | -19.06746 | -70.51246 | 35000 ft | 476 kts | 197° |
| 2026-05-05 09:54 | -19.13185 | -70.52786 | 34996 ft | 476 kts | 197° |
| 2026-05-05 09:54 | -19.19603 | -70.54322 | 34997 ft | 476 kts | 197° |
| 2026-05-05 09:55 | -19.26003 | -70.55854 | 34996 ft | 476 kts | 197° |
| 2026-05-05 09:55 | -19.32454 | -70.57400 | 34997 ft | 477 kts | 197° |
| 2026-05-05 09:56 | -19.38950 | -70.58913 | 34997 ft | 479 kts | 193° |
| 2026-05-05 09:56 | -19.45616 | -70.58981 | 35004 ft | 490 kts | 175° |
| 2026-05-05 09:57 | -19.52224 | -70.57029 | 34999 ft | 496 kts | 165° |
| 2026-05-05 09:57 | -19.58725 | -70.54671 | 34998 ft | 496 kts | 164° |
| 2026-05-05 09:58 | -19.65215 | -70.52298 | 34998 ft | 496 kts | 164° |
| 2026-05-05 09:58 | -19.71690 | -70.49921 | 34999 ft | 496 kts | 164° |
| 2026-05-05 09:59 | -19.78185 | -70.47531 | 35000 ft | 496 kts | 165° |
| 2026-05-05 09:59 | -19.84697 | -70.45135 | 35000 ft | 495 kts | 165° |
| 2026-05-05 10:00 | -19.91174 | -70.42748 | 35000 ft | 495 kts | 165° |
| 2026-05-05 10:00 | -19.97658 | -70.40357 | 35001 ft | 495 kts | 165° |
| 2026-05-05 10:01 | -20.04150 | -70.37960 | 35001 ft | 495 kts | 165° |
| 2026-05-05 10:01 | -20.10631 | -70.35566 | 35001 ft | 495 kts | 165° |
| 2026-05-05 10:02 | -20.17126 | -70.33164 | 34990 ft | 495 kts | 164° |
| 2026-05-05 10:02 | -20.23598 | -70.30769 | 34990 ft | 496 kts | 164° |
| 2026-05-05 10:03 | -20.30081 | -70.28366 | 34991 ft | 496 kts | 165° |
| 2026-05-05 10:03 | -20.36572 | -70.25960 | 34991 ft | 496 kts | 165° |
| 2026-05-05 10:04 | -20.43063 | -70.23551 | 34991 ft | 494 kts | 165° |
| 2026-05-05 10:04 | -20.49314 | -70.21230 | 34992 ft | 495 kts | 165° |
| 2026-05-05 10:05 | -20.55792 | -70.18756 | 34993 ft | 497 kts | 160° |
| 2026-05-05 10:05 | -20.61817 | -70.15137 | 34994 ft | 501 kts | 151° |
| 2026-05-05 10:06 | -20.67740 | -70.11220 | 34993 ft | 501 kts | 151° |
| 2026-05-05 10:06 | -20.73644 | -70.07287 | 34994 ft | 501 kts | 151° |
| 2026-05-05 10:07 | -20.79510 | -70.03367 | 34994 ft | 500 kts | 151° |
| 2026-05-05 10:07 | -20.85377 | -69.99454 | 34993 ft | 501 kts | 151° |
| 2026-05-05 10:08 | -20.91262 | -69.95499 | 34996 ft | 501 kts | 151° |
| 2026-05-05 10:08 | -20.97152 | -69.91547 | 34996 ft | 501 kts | 151° |
| 2026-05-05 10:09 | -21.03015 | -69.87611 | 34996 ft | 501 kts | 151° |
| 2026-05-05 10:09 | -21.08891 | -69.83662 | 34997 ft | 501 kts | 151° |
| 2026-05-05 10:10 | -21.14775 | -69.79706 | 34995 ft | 501 kts | 151° |
| 2026-05-05 10:10 | -21.20670 | -69.75738 | 34995 ft | 501 kts | 151° |
| 2026-05-05 10:11 | -21.26535 | -69.71787 | 34995 ft | 500 kts | 151° |
| 2026-05-05 10:11 | -21.32433 | -69.67811 | 34996 ft | 502 kts | 151° |
| 2026-05-05 10:12 | -21.38320 | -69.63838 | 34997 ft | 502 kts | 151° |
| 2026-05-05 10:12 | -21.44196 | -69.59869 | 34998 ft | 502 kts | 151° |
| 2026-05-05 10:13 | -21.50059 | -69.55906 | 34998 ft | 502 kts | 151° |
| 2026-05-05 10:13 | -21.55936 | -69.51928 | 35062 ft | 501 kts | 151° |
| 2026-05-05 10:14 | -21.61836 | -69.47932 | 35201 ft | 502 kts | 152° |
| 2026-05-05 10:14 | -21.67748 | -69.43922 | 35323 ft | 502 kts | 152° |
| 2026-05-05 10:15 | -21.73614 | -69.39941 | 35325 ft | 502 kts | 152° |
| 2026-05-05 10:15 | -21.79485 | -69.35952 | 35326 ft | 504 kts | 151° |
| 2026-05-05 10:16 | -21.85393 | -69.31930 | 35316 ft | 503 kts | 151° |
| 2026-05-05 10:16 | -21.91297 | -69.27908 | 35317 ft | 503 kts | 151° |
| 2026-05-05 10:17 | -21.97176 | -69.23898 | 35318 ft | 502 kts | 151° |
| 2026-05-05 10:17 | -22.03073 | -69.19871 | 35318 ft | 501 kts | 151° |
| 2026-05-05 10:18 | -22.08936 | -69.15865 | 35318 ft | 501 kts | 151° |
| 2026-05-05 10:18 | -22.14808 | -69.11848 | 35316 ft | 501 kts | 151° |
| 2026-05-05 10:19 | -22.20665 | -69.07837 | 35316 ft | 501 kts | 151° |
| 2026-05-05 10:19 | -22.26523 | -69.03821 | 35316 ft | 502 kts | 151° |
| 2026-05-05 10:20 | -22.32435 | -68.99765 | 35317 ft | 506 kts | 151° |
| 2026-05-05 10:20 | -22.38347 | -68.95703 | 35318 ft | 505 kts | 151° |
| 2026-05-05 10:21 | -22.44218 | -68.91666 | 35319 ft | 505 kts | 151° |
| 2026-05-05 10:21 | -22.50147 | -68.87576 | 35319 ft | 506 kts | 149° |
| 2026-05-05 10:22 | -22.55776 | -68.83009 | 35320 ft | 508 kts | 146° |
| 2026-05-05 10:22 | -22.61363 | -68.78412 | 35321 ft | 508 kts | 146° |
| 2026-05-05 10:23 | -22.66967 | -68.73807 | 35322 ft | 507 kts | 146° |
| 2026-05-05 10:23 | -22.72587 | -68.69190 | 35322 ft | 506 kts | 146° |
| 2026-05-05 10:24 | -22.78175 | -68.64594 | 35323 ft | 509 kts | 146° |
| 2026-05-05 10:24 | -22.83804 | -68.59961 | 35323 ft | 510 kts | 146° |
| 2026-05-05 10:25 | -22.89449 | -68.55308 | 35325 ft | 510 kts | 146° |
| 2026-05-05 10:25 | -22.95061 | -68.50674 | 35325 ft | 508 kts | 147° |
| 2026-05-05 10:26 | -23.00665 | -68.46049 | 35326 ft | 509 kts | 147° |
| 2026-05-05 10:26 | -23.06265 | -68.41421 | 35327 ft | 509 kts | 147° |
| 2026-05-05 10:27 | -23.11890 | -68.36766 | 35324 ft | 509 kts | 147° |
| 2026-05-05 10:27 | -23.17498 | -68.32121 | 35313 ft | 509 kts | 146° |
| 2026-05-05 10:28 | -23.23112 | -68.27464 | 35314 ft | 509 kts | 146° |
| 2026-05-05 10:28 | -23.28754 | -68.22778 | 35316 ft | 515 kts | 147° |
| 2026-05-05 10:29 | -23.34391 | -68.18092 | 35314 ft | 513 kts | 147° |
| 2026-05-05 10:29 | -23.40066 | -68.13371 | 35316 ft | 513 kts | 147° |
| 2026-05-05 10:30 | -23.45722 | -68.08659 | 35317 ft | 513 kts | 147° |
| 2026-05-05 10:30 | -23.51343 | -68.03971 | 35318 ft | 513 kts | 147° |
| 2026-05-05 10:31 | -23.56923 | -67.99313 | 35318 ft | 513 kts | 147° |
| 2026-05-05 10:31 | -23.62561 | -67.94600 | 35319 ft | 513 kts | 147° |
| 2026-05-05 10:32 | -23.68214 | -67.89870 | 35320 ft | 513 kts | 147° |
| 2026-05-05 10:32 | -23.73844 | -67.85153 | 35321 ft | 513 kts | 147° |
| 2026-05-05 10:33 | -23.79513 | -67.80397 | 35323 ft | 516 kts | 147° |
| 2026-05-05 10:33 | -23.85172 | -67.75647 | 35322 ft | 515 kts | 147° |
| 2026-05-05 10:34 | -23.90823 | -67.70898 | 35324 ft | 516 kts | 147° |
| 2026-05-05 10:34 | -23.96520 | -67.66104 | 35324 ft | 517 kts | 147° |
| 2026-05-05 10:35 | -24.02183 | -67.61333 | 35325 ft | 517 kts | 147° |
| 2026-05-05 10:35 | -24.07870 | -67.56535 | 35326 ft | 517 kts | 147° |
| 2026-05-05 10:36 | -24.13539 | -67.51720 | 35271 ft | 518 kts | 146° |
| 2026-05-05 10:36 | -24.19177 | -67.46847 | 35133 ft | 517 kts | 146° |
| 2026-05-05 10:37 | -24.24770 | -67.42011 | 35006 ft | 517 kts | 146° |
| 2026-05-05 10:37 | -24.30406 | -67.37128 | 35002 ft | 514 kts | 147° |
| 2026-05-05 10:38 | -24.36009 | -67.32275 | 34989 ft | 514 kts | 146° |
| 2026-05-05 10:38 | -24.41527 | -67.27487 | 34990 ft | 514 kts | 146° |
| 2026-05-05 10:39 | -24.47143 | -67.22610 | 34990 ft | 512 kts | 146° |
| 2026-05-05 10:39 | -24.52693 | -67.17785 | 34992 ft | 513 kts | 146° |
| 2026-05-05 10:40 | -24.58252 | -67.12941 | 34992 ft | 513 kts | 146° |
| 2026-05-05 10:40 | -24.63824 | -67.08086 | 34993 ft | 513 kts | 146° |
| 2026-05-05 10:41 | -24.69394 | -67.03225 | 34994 ft | 513 kts | 146° |
| 2026-05-05 10:41 | -24.74956 | -66.98365 | 34993 ft | 513 kts | 146° |
| 2026-05-05 10:42 | -24.83308 | -66.91063 | 34996 ft | 513 kts | 147° |
| 2026-05-05 10:43 | -24.88882 | -66.86176 | 34996 ft | 513 kts | 147° |
| 2026-05-05 10:43 | -24.94435 | -66.81301 | 34997 ft | 513 kts | 147° |
| 2026-05-05 10:44 | -24.99962 | -66.76446 | 34998 ft | 513 kts | 147° |
| 2026-05-05 10:44 | -25.05535 | -66.71542 | 34997 ft | 508 kts | 147° |
| 2026-05-05 10:45 | -25.11048 | -66.66691 | 34999 ft | 510 kts | 147° |
| 2026-05-05 10:45 | -25.16547 | -66.61843 | 34999 ft | 510 kts | 147° |
| 2026-05-05 10:46 | -25.22096 | -66.56946 | 35000 ft | 510 kts | 147° |
| 2026-05-05 10:46 | -25.27594 | -66.52086 | 35001 ft | 510 kts | 147° |
| 2026-05-05 10:47 | -25.33131 | -66.47189 | 35001 ft | 510 kts | 147° |
| 2026-05-05 10:47 | -25.38640 | -66.42309 | 35002 ft | 510 kts | 147° |
| 2026-05-05 10:48 | -25.44151 | -66.37422 | 35003 ft | 510 kts | 147° |
| 2026-05-05 10:48 | -25.49694 | -66.32501 | 34989 ft | 511 kts | 147° |
| 2026-05-05 10:49 | -25.55208 | -66.27598 | 34990 ft | 511 kts | 147° |
| 2026-05-05 10:49 | -25.60718 | -66.22693 | 34990 ft | 510 kts | 147° |
| 2026-05-05 10:50 | -25.66238 | -66.17774 | 34991 ft | 510 kts | 147° |
| 2026-05-05 10:50 | -25.71736 | -66.12869 | 34992 ft | 510 kts | 147° |
| 2026-05-05 10:51 | -25.77273 | -66.07922 | 34992 ft | 512 kts | 147° |
| 2026-05-05 10:51 | -25.82809 | -66.02972 | 34993 ft | 513 kts | 147° |
| 2026-05-05 10:52 | -25.88353 | -65.98010 | 34994 ft | 513 kts | 147° |
| 2026-05-05 10:52 | -25.93887 | -65.93050 | 34995 ft | 513 kts | 147° |
| 2026-05-05 10:53 | -25.99392 | -65.88110 | 34930 ft | 513 kts | 147° |
| 2026-05-05 10:53 | -26.04932 | -65.83132 | 34916 ft | 513 kts | 147° |
| 2026-05-05 10:54 | -26.10464 | -65.78149 | 34917 ft | 513 kts | 147° |
| 2026-05-05 10:54 | -26.15865 | -65.73287 | 34918 ft | 511 kts | 147° |
| 2026-05-05 10:55 | -26.21332 | -65.68353 | 34918 ft | 509 kts | 147° |
| 2026-05-05 10:55 | -26.26846 | -65.63374 | 34919 ft | 509 kts | 147° |
| 2026-05-05 10:56 | -26.32307 | -65.58435 | 34919 ft | 509 kts | 147° |
| 2026-05-05 10:56 | -26.37814 | -65.53448 | 34920 ft | 509 kts | 147° |
| 2026-05-05 10:57 | -26.43270 | -65.48500 | 34921 ft | 509 kts | 147° |
| 2026-05-05 10:57 | -26.48752 | -65.43523 | 34922 ft | 509 kts | 147° |
| 2026-05-05 10:58 | -26.54246 | -65.38528 | 34922 ft | 509 kts | 147° |
| 2026-05-05 10:58 | -26.59712 | -65.33552 | 34910 ft | 510 kts | 147° |
| 2026-05-05 10:59 | -26.65185 | -65.28564 | 34908 ft | 510 kts | 147° |
| 2026-05-05 10:59 | -26.70667 | -65.23561 | 34910 ft | 509 kts | 147° |
| 2026-05-05 11:00 | -26.76117 | -65.18581 | 34909 ft | 508 kts | 147° |
| 2026-05-05 11:00 | -26.81657 | -65.13515 | 34911 ft | 517 kts | 147° |
| 2026-05-05 11:01 | -26.87428 | -65.08942 | 34915 ft | 506 kts | 156° |
| 2026-05-05 11:01 | -26.93502 | -65.04943 | 34912 ft | 506 kts | 156° |
| 2026-05-05 11:02 | -26.99535 | -65.00952 | 34913 ft | 506 kts | 156° |
| 2026-05-05 11:02 | -27.05595 | -64.96938 | 34914 ft | 506 kts | 156° |
| 2026-05-05 11:03 | -27.11556 | -64.92985 | 34914 ft | 506 kts | 156° |
| 2026-05-05 11:03 | -27.17619 | -64.88958 | 34894 ft | 507 kts | 156° |
| 2026-05-05 11:04 | -27.23642 | -64.84953 | 34861 ft | 506 kts | 156° |
| 2026-05-05 11:04 | -27.29689 | -64.80932 | 34860 ft | 511 kts | 156° |
| 2026-05-05 11:05 | -27.35765 | -64.76876 | 34862 ft | 509 kts | 157° |
| 2026-05-05 11:05 | -27.41869 | -64.72802 | 34863 ft | 510 kts | 157° |
| 2026-05-05 11:06 | -27.47920 | -64.68758 | 34864 ft | 510 kts | 157° |
| 2026-05-05 11:06 | -27.54007 | -64.64684 | 34865 ft | 510 kts | 157° |
| 2026-05-05 11:07 | -27.60095 | -64.60601 | 34866 ft | 510 kts | 157° |
| 2026-05-05 11:07 | -27.66163 | -64.56526 | 34868 ft | 510 kts | 157° |
| 2026-05-05 11:08 | -27.72214 | -64.52457 | 34922 ft | 510 kts | 157° |
| 2026-05-05 11:08 | -27.78310 | -64.48350 | 34922 ft | 511 kts | 158° |
| 2026-05-05 11:09 | -27.84410 | -64.44239 | 34923 ft | 512 kts | 158° |
| 2026-05-05 11:09 | -27.90521 | -64.40114 | 34924 ft | 512 kts | 158° |
| 2026-05-05 11:10 | -27.96613 | -64.35995 | 34925 ft | 512 kts | 158° |
| 2026-05-05 11:10 | -28.02686 | -64.31886 | 34907 ft | 512 kts | 157° |
| 2026-05-05 11:11 | -28.08797 | -64.27744 | 34908 ft | 512 kts | 157° |
| 2026-05-05 11:11 | -28.14842 | -64.23634 | 34901 ft | 494 kts | 157° |
| 2026-05-05 11:11 | -28.17719 | -64.21671 | 34899 ft | 475 kts | 158° |
| 2026-05-05 11:12 | -28.20560 | -64.19743 | 34907 ft | 471 kts | 158° |
| 2026-05-05 11:12 | -28.26173 | -64.15935 | 34909 ft | 474 kts | 158° |
| 2026-05-05 11:13 | -28.31834 | -64.12080 | 34910 ft | 474 kts | 158° |
| 2026-05-05 11:13 | -28.37464 | -64.08244 | 34911 ft | 474 kts | 158° |
| 2026-05-05 11:14 | -28.43076 | -64.04413 | 34912 ft | 474 kts | 158° |
| 2026-05-05 11:14 | -28.48700 | -64.00569 | 34913 ft | 474 kts | 158° |
| 2026-05-05 11:15 | -28.54338 | -63.96711 | 34913 ft | 474 kts | 158° |
| 2026-05-05 11:15 | -28.59991 | -63.92837 | 34914 ft | 474 kts | 158° |
| 2026-05-05 11:16 | -28.65586 | -63.88999 | 34915 ft | 474 kts | 158° |
| 2026-05-05 11:16 | -28.71213 | -63.85130 | 34916 ft | 474 kts | 158° |
| 2026-05-05 11:17 | -28.76873 | -63.81239 | 34917 ft | 474 kts | 158° |
| 2026-05-05 11:17 | -28.82462 | -63.77379 | 34917 ft | 474 kts | 158° |
| 2026-05-05 11:18 | -28.88102 | -63.73457 | 34918 ft | 472 kts | 158° |
| 2026-05-05 11:18 | -28.93652 | -63.69595 | 34919 ft | 471 kts | 158° |
| 2026-05-05 11:19 | -28.99210 | -63.65723 | 34919 ft | 471 kts | 158° |
| 2026-05-05 11:19 | -29.04806 | -63.61818 | 34920 ft | 471 kts | 158° |
| 2026-05-05 11:20 | -29.10386 | -63.57918 | 34921 ft | 471 kts | 158° |
| 2026-05-05 11:20 | -29.15947 | -63.54028 | 34922 ft | 471 kts | 158° |
| 2026-05-05 11:21 | -29.21513 | -63.50130 | 34923 ft | 471 kts | 158° |
| 2026-05-05 11:21 | -29.27069 | -63.46233 | 34923 ft | 472 kts | 158° |
| 2026-05-05 11:22 | -29.32669 | -63.42299 | 34924 ft | 472 kts | 158° |
| 2026-05-05 11:22 | -29.38249 | -63.38376 | 34925 ft | 472 kts | 158° |
| 2026-05-05 11:23 | -29.43805 | -63.34462 | 34918 ft | 472 kts | 158° |
| 2026-05-05 11:23 | -29.49403 | -63.30503 | 34907 ft | 472 kts | 158° |
| 2026-05-05 11:24 | -29.54982 | -63.26546 | 34908 ft | 472 kts | 158° |
| 2026-05-05 11:24 | -29.60551 | -63.22591 | 34908 ft | 472 kts | 158° |
| 2026-05-05 11:25 | -29.66097 | -63.18647 | 34909 ft | 472 kts | 158° |
| 2026-05-05 11:25 | -29.71658 | -63.14686 | 34910 ft | 472 kts | 158° |
| 2026-05-05 11:26 | -29.77249 | -63.10699 | 34910 ft | 473 kts | 158° |
| 2026-05-05 11:26 | -29.82825 | -63.06719 | 34911 ft | 474 kts | 158° |
| 2026-05-05 11:27 | -29.88415 | -63.02723 | 34912 ft | 474 kts | 158° |
| 2026-05-05 11:27 | -29.93980 | -62.98739 | 34913 ft | 474 kts | 158° |
| 2026-05-05 11:28 | -29.99550 | -62.94746 | 34914 ft | 474 kts | 158° |
| 2026-05-05 11:28 | -30.05138 | -62.90735 | 34914 ft | 474 kts | 158° |
| 2026-05-05 11:29 | -30.10739 | -62.86709 | 34915 ft | 474 kts | 158° |
| 2026-05-05 11:29 | -30.16286 | -62.82717 | 34916 ft | 474 kts | 158° |
| 2026-05-05 11:30 | -30.21846 | -62.78710 | 34917 ft | 474 kts | 158° |
| 2026-05-05 11:30 | -30.27416 | -62.74691 | 34918 ft | 474 kts | 158° |
| 2026-05-05 11:31 | -30.32958 | -62.70686 | 34918 ft | 470 kts | 157° |
| 2026-05-05 11:31 | -30.38486 | -62.66686 | 34919 ft | 470 kts | 157° |
| 2026-05-05 11:32 | -30.43993 | -62.62698 | 34920 ft | 470 kts | 157° |
| 2026-05-05 11:32 | -30.49531 | -62.58683 | 34920 ft | 470 kts | 157° |
| 2026-05-05 11:33 | -30.55045 | -62.54679 | 34921 ft | 470 kts | 157° |
| 2026-05-05 11:33 | -30.60568 | -62.50663 | 34922 ft | 470 kts | 157° |
| 2026-05-05 11:34 | -30.66080 | -62.46650 | 34922 ft | 470 kts | 157° |
| 2026-05-05 11:34 | -30.71614 | -62.42616 | 34962 ft | 469 kts | 157° |
| 2026-05-05 11:35 | -30.77132 | -62.38587 | 34977 ft | 471 kts | 157° |
| 2026-05-05 11:35 | -30.82658 | -62.34572 | 34973 ft | 471 kts | 157° |
| 2026-05-05 11:36 | -30.88250 | -62.30511 | 34961 ft | 472 kts | 157° |
| 2026-05-05 11:36 | -30.93789 | -62.26482 | 34962 ft | 472 kts | 157° |
| 2026-05-05 11:37 | -30.99313 | -62.22466 | 34961 ft | 469 kts | 156° |
| 2026-05-05 11:37 | -31.04854 | -62.18417 | 34963 ft | 470 kts | 157° |
| 2026-05-05 11:38 | -31.10344 | -62.14411 | 34964 ft | 469 kts | 157° |
| 2026-05-05 11:38 | -31.15883 | -62.10361 | 34964 ft | 469 kts | 157° |
| 2026-05-05 11:39 | -31.21414 | -62.06302 | 34962 ft | 470 kts | 156° |
| 2026-05-05 11:39 | -31.26875 | -62.02246 | 34967 ft | 469 kts | 156° |
| 2026-05-05 11:40 | -31.32358 | -61.98174 | 34967 ft | 468 kts | 156° |
| 2026-05-05 11:40 | -31.37847 | -61.94090 | 34968 ft | 468 kts | 156° |
| 2026-05-05 11:41 | -31.43304 | -61.90025 | 34969 ft | 468 kts | 156° |
| 2026-05-05 11:41 | -31.48778 | -61.85941 | 34969 ft | 468 kts | 156° |
| 2026-05-05 11:42 | -31.54261 | -61.81844 | 34970 ft | 468 kts | 156° |
| 2026-05-05 11:42 | -31.59747 | -61.77740 | 34971 ft | 468 kts | 156° |
| 2026-05-05 11:43 | -31.65205 | -61.73650 | 34972 ft | 467 kts | 156° |
| 2026-05-05 11:43 | -31.70620 | -61.69586 | 34972 ft | 465 kts | 156° |
| 2026-05-05 11:44 | -31.76056 | -61.65502 | 34972 ft | 465 kts | 156° |
| 2026-05-05 11:44 | -31.81489 | -61.61415 | 34973 ft | 465 kts | 156° |
| 2026-05-05 11:45 | -31.86948 | -61.57303 | 34973 ft | 465 kts | 156° |
| 2026-05-05 11:45 | -31.92352 | -61.53223 | 34974 ft | 465 kts | 156° |
| 2026-05-05 11:46 | -31.97794 | -61.49111 | 34975 ft | 465 kts | 156° |
| 2026-05-05 11:46 | -32.03206 | -61.45016 | 34975 ft | 465 kts | 156° |
| 2026-05-05 11:47 | -32.08640 | -61.40898 | 34976 ft | 465 kts | 156° |
| 2026-05-05 11:47 | -32.13136 | -61.37487 | 34977 ft | 464 kts | 156° |
| 2026-05-05 11:48 | -32.22194 | -61.30602 | 34962 ft | 465 kts | 155° |
| 2026-05-05 11:48 | -32.27608 | -61.26480 | 34962 ft | 464 kts | 155° |
| 2026-05-05 11:49 | -32.33017 | -61.22353 | 34963 ft | 463 kts | 155° |
| 2026-05-05 11:49 | -32.38419 | -61.18228 | 34939 ft | 464 kts | 155° |
| 2026-05-05 11:50 | -32.43825 | -61.14093 | 34938 ft | 463 kts | 155° |
| 2026-05-05 11:50 | -32.49205 | -61.09972 | 34938 ft | 463 kts | 155° |
| 2026-05-05 11:51 | -32.54591 | -61.05840 | 34939 ft | 463 kts | 155° |
| 2026-05-05 11:51 | -32.60029 | -61.01663 | 34939 ft | 463 kts | 155° |
| 2026-05-05 11:52 | -32.65425 | -60.97512 | 34940 ft | 463 kts | 155° |
| 2026-05-05 11:52 | -32.70826 | -60.93350 | 34941 ft | 463 kts | 155° |
| 2026-05-05 11:53 | -32.76208 | -60.89198 | 34941 ft | 463 kts | 155° |
| 2026-05-05 11:53 | -32.81596 | -60.85035 | 34942 ft | 465 kts | 156° |
| 2026-05-05 11:54 | -32.87000 | -60.80854 | 34943 ft | 464 kts | 156° |
| 2026-05-05 11:54 | -32.92441 | -60.76771 | 34944 ft | 460 kts | 159° |
| 2026-05-05 11:55 | -32.97008 | -60.73650 | 34944 ft | 460 kts | 159° |